Zarling — WDD7883 — position and weather

sailwx.info

Track history (hours):
 
Tides and Currents Weather Stations Pressure Air Temp Water Temp Dewpoint Dewpoint Depression Visibility Wind Speed Wind Dir Waves Ship Positions

Zarling

Owner: Clean Rivers Co-op, Portland, OR. More information available from US FCC via Universal Licensing System.

Last reported at 2015-May-27 21:33 UTC. Time now 2015-May-27 22:01 UTC.
Position N 46°05' W 122°56'.

Length 12 m.

Type: Pollution control. MMSI: 3699126.

Date/timePositionNaut miles runAvg speedWind from/ knotsBaromVisibWave heightAir tempDewpointWater temp
2015-May-27 21:33N 46°05' W 122°56'201465.7
2015-May-27 21:32N 46°12' W 123°23'321118.9
2015-May-27 21:31N 45°52' W 122°48'15392.6
2015-May-27 21:28N 45°37' W 122°48'631.9
2015-May-27 21:17N 45°33' W 122°42'4965.0
2015-May-27 20:32N 46°12' W 123°23'432374.3
2015-May-27 20:31N 45°37' W 122°48'6173.0
2015-May-27 20:29N 45°33' W 122°42'19675.9
2015-May-27 20:28N 45°52' W 122°48'14251.4
2015-May-27 20:24N 46°05' W 122°56'2023.6
2015-May-27 19:32N 46°12' W 123°23'432615.8
2015-May-27 19:31N 45°37' W 122°48'291453.5
2015-May-27 19:30N 46°05' W 122°56'14337.9
2015-May-27 19:28N 45°52' W 122°48'19274.1
2015-May-27 19:23N 45°33' W 122°42'3440.3
2015-May-27 18:33N 46°05' W 122°56'29921.4
2015-May-27 18:31N 45°37' W 122°48'6171.6
2015-May-27 18:29N 45°33' W 122°42'49989.3
2015-May-27 18:26N 46°12' W 123°23'32408.7
2015-May-27 18:22N 45°52' W 122°48'3239.0
2015-May-27 17:32N 46°12' W 123°23'432572.2
2015-May-27 17:31N 45°37' W 122°48'291453.5
2015-May-27 17:30N 46°05' W 122°56'14342.5
2015-May-27 17:28N 45°52' W 122°48'19268.6
2015-May-27 17:23N 45°33' W 122°42'3440.3
2015-May-27 16:33N 46°05' W 122°56'201465.7
2015-May-27 16:32N 46°12' W 123°23'49978.3
2015-May-27 16:29N 45°33' W 122°42'19245.9
2015-May-27 16:25N 45°52' W 122°48'1551.5
2015-May-27 16:07N 45°37' W 122°48'4373.6
2015-May-27 15:32N 46°12' W 123°23'432449.7
2015-May-27 15:31N 45°37' W 122°48'151241.6
2015-May-27 15:31N 45°52' W 122°48'141927.6
2015-May-27 15:30N 46°05' W 122°56'342422.5
2015-May-27 15:29N 45°33' W 122°42'3435.9
2015-May-27 14:33N 46°05' W 122°56'201357.1
2015-May-27 14:32N 46°12' W 123°23'432967.9
2015-May-27 14:31N 45°37' W 122°48'6167.5
2015-May-27 14:29N 45°33' W 122°42'19703.3
2015-May-27 14:28N 45°52' W 122°48'1515.8
2015-May-27 13:31N 45°37' W 122°48'291453.8
2015-May-27 13:30N 46°05' W 122°56'20317.3
2015-May-27 13:26N 46°12' W 123°23'32251.7
2015-May-27 13:19N 45°52' W 122°48'1419.1
2015-May-27 12:33N 46°05' W 122°56'29964.7
2015-May-27 12:31N 45°37' W 122°48'431234.8
2015-May-27 12:29N 46°12' W 123°23'321152.6
2015-May-27 12:28N 45°52' W 122°48'1415.9
2015-May-27 11:33N 46°05' W 122°56'29983.0
2015-May-27 11:31N 45°37' W 122°48'15237.3
2015-May-27 11:28N 45°52' W 122°48'32231.9
2015-May-27 11:19N 46°12' W 123°23'49207.5
2015-May-27 11:05N 45°33' W 122°42'610.4
2015-May-27 10:31N 45°37' W 122°48'291357.9
2015-May-27 10:30N 46°05' W 122°56'342422.5
2015-May-27 10:29N 45°33' W 122°42'19725.2
2015-May-27 10:28N 45°52' W 122°48'32811.6
2015-May-27 10:25N 46°12' W 123°23'4347.7
2015-May-27 09:31N 45°37' W 122°48'291376.0
2015-May-27 09:30N 46°05' W 122°56'20660.2
2015-May-27 09:28N 46°12' W 123°23'323201.3
2015-May-27 09:28N 45°52' W 122°48'3234.1
2015-May-27 08:31N 46°12' W 123°23'322810.9
2015-May-27 08:31N 45°52' W 122°48'141626.4
2015-May-27 08:30N 46°05' W 122°56'29364.7
2015-May-27 08:25N 45°37' W 122°48'6170.1
2015-May-27 08:23N 45°33' W 122°42'4956.1
2015-May-27 07:31N 46°12' W 123°23'201003.9
2015-May-27 07:30N 46°05' W 122°56'342422.5
2015-May-27 07:29N 45°33' W 122°42'19153.3
2015-May-27 07:22N 45°52' W 122°48'15106.9
2015-May-27 07:13N 45°37' W 122°48'2942.7
2015-May-27 06:33N 46°05' W 122°56'29973.6
2015-May-27 06:31N 45°37' W 122°48'43834.2
2015-May-27 06:28N 46°12' W 123°23'323114.8
2015-May-27 06:28N 45°52' W 122°48'19111.4
2015-May-27 06:17N 45°33' W 122°42'6 7.7
2015-May-27 05:31N 45°37' W 122°48'4322047.4
2015-May-27 05:31N 46°12' W 123°23'201032.2
2015-May-27 05:30N 46°05' W 122°56'14354.0
2015-May-27 05:28N 45°52' W 122°48'1515.8
2015-May-27 04:31N 45°37' W 122°48'6168.7
2015-May-27 04:29N 45°33' W 122°42'492870.3
2015-May-27 04:28N 46°12' W 123°23'323292.7
2015-May-27 04:28N 45°52' W 122°48'14239.8
2015-May-27 04:24N 46°05' W 122°56'0 0.0
2015-May-27 03:33N 46°05' W 122°56'291021.8
2015-May-27 03:31N 45°37' W 122°48'432911.9
2015-May-27 03:31N 46°12' W 123°23'492334.8
2015-May-27 03:29N 45°33' W 122°42'19748.4
2015-May-27 03:28N 45°52' W 122°48'1415.9
2015-May-27 02:33N 46°05' W 122°56'20479.0
2015-May-27 02:31N 46°12' W 123°23'32686.1
2015-May-27 02:28N 45°52' W 122°48'15398.3
2015-May-27 02:26N 45°37' W 122°48'624.6
2015-May-27 02:11N 45°33' W 122°42'6 8.8
2015-May-27 01:31N 45°37' W 122°48'151270.6
2015-May-27 01:31N 45°52' W 122°48'329605.0
2015-May-27 01:31N 46°12' W 123°23'20190.4
2015-May-27 01:24N 46°05' W 122°56'342422.5
2015-May-27 01:23N 45°33' W 122°42'0 0.0
2015-May-27 00:32N 45°33' W 122°42'6413.2
2015-May-27 00:31N 45°37' W 122°48'291274.3
2015-May-27 00:30N 46°05' W 122°56'20472.8
2015-May-27 00:28N 46°12' W 123°23'32129.8
2015-May-27 00:13N 45°52' W 122°48'1521.6
2015-May-26 23:31N 45°37' W 122°48'6163.6
2015-May-26 23:29N 45°33' W 122°42'491667.7
2015-May-26 23:28N 46°12' W 123°23'20355.8
2015-May-26 23:24N 46°05' W 122°56'14364.1
2015-May-26 23:22N 45°52' W 122°48'1517.7
2015-May-26 22:31N 45°37' W 122°48'151302.1
2015-May-26 22:31N 45°52' W 122°48'141334.5
2015-May-26 22:30N 46°05' W 122°56'20475.9
2015-May-26 22:28N 46°12' W 123°23'49179.8
2015-May-26 22:11N 45°33' W 122°42'1926.6
2015-May-26 21:28N 45°52' W 122°48'329603.8
2015-May-26 21:28N 46°12' W 123°23'20361.0
2015-May-26 21:24N 46°05' W 122°56'291032.0
2015-May-26 21:23N 45°37' W 122°48'620.5
2015-May-26 21:05N 45°33' W 122°42'610.4
2015-May-26 20:32N 45°37' W 122°48'432707.6
2015-May-26 20:31N 46°12' W 123°23'202617.3
2015-May-26 20:30N 46°05' W 122°56'14371.7
2015-May-26 20:28N 45°52' W 122°48'1951.5
2015-May-26 20:05N 45°33' W 122°42'3457.5
2015-May-26 19:30N 46°05' W 122°56'14371.7
2015-May-26 19:28N 45°52' W 122°48'1970.3
2015-May-26 19:11N 45°33' W 122°42'693.0
2015-May-26 19:08N 45°37' W 122°48'43651.2
2015-May-26 19:04N 46°12' W 123°23'2038.2
2015-May-26 18:32N 46°05' W 122°56'29557.8
2015-May-26 18:29N 45°37' W 122°48'432615.8
2015-May-26 18:28N 46°12' W 123°23'32163.5
2015-May-26 18:16N 45°52' W 122°48'1924.9
2015-May-26 17:29N 45°33' W 122°42'19258.7
2015-May-26 17:25N 45°52' W 122°48'15392.6
2015-May-26 17:23N 45°37' W 122°48'43369.3
2015-May-26 17:16N 46°12' W 123°23'20626.4
2015-May-26 17:14N 46°05' W 122°56'1418.9
2015-May-26 16:28N 45°52' W 122°48'15392.6
2015-May-26 16:26N 45°37' W 122°48'29115.5
2015-May-26 16:11N 46°05' W 122°56'20172.0
2015-May-26 16:04N 46°12' W 123°23'0 0.0
2015-May-26 15:31N 46°12' W 123°23'32694.3
2015-May-26 15:28N 45°52' W 122°48'15392.6
2015-May-26 15:26N 45°37' W 122°48'624.7
2015-May-26 15:11N 45°33' W 122°42'3450.9
2015-May-26 14:32N 46°05' W 122°56'2934399.5
2015-May-26 14:32N 45°37' W 122°48'15237.3
2015-May-26 14:28N 45°52' W 122°48'32207.7
2015-May-26 14:19N 46°12' W 123°23'491036.1
2015-May-26 14:16N 45°33' W 122°42'6 8.0
2015-May-26 13:32N 45°37' W 122°48'692.6
2015-May-26 13:28N 45°33' W 122°42'4912507.7
2015-May-26 13:28N 46°12' W 123°23'20245.9
2015-May-26 13:23N 46°05' W 122°56'141131.4
2015-May-26 13:22N 45°52' W 122°48'0 0.0
2015-May-26 12:31N 45°52' W 122°48'326403.3
2015-May-26 12:31N 46°12' W 123°23'20648.5
2015-May-26 12:29N 46°05' W 122°56'2925804.9
2015-May-26 12:29N 45°37' W 122°48'6421.8
2015-May-26 12:28N 45°33' W 122°42'3434.2
2015-May-26 11:29N 46°05' W 122°56'2917203.3
2015-May-26 11:29N 45°37' W 122°48'6439.4
2015-May-26 11:28N 45°33' W 122°42'4921888.5
2015-May-26 11:28N 46°12' W 123°23'32219.5
2015-May-26 11:19N 45°52' W 122°48'3242.3
2015-May-26 10:34N 46°12' W 123°23'431353.8
2015-May-26 10:32N 45°37' W 122°48'151213.3
2015-May-26 10:31N 45°52' W 122°48'19374.2
2015-May-26 10:28N 45°33' W 122°42'3436.6
2015-May-26 09:33N 46°05' W 122°56'291691.8
2015-May-26 09:32N 45°37' W 122°48'432374.3
2015-May-26 09:31N 46°12' W 123°23'32734.1
2015-May-26 09:28N 45°52' W 122°48'19188.7
2015-May-26 09:22N 45°33' W 122°42'1921.5
2015-May-26 08:28N 45°52' W 122°48'143254.0
2015-May-26 08:28N 46°05' W 122°56'29215.4
2015-May-26 08:20N 45°37' W 122°48'432489.2
2015-May-26 08:19N 46°12' W 123°23'49332.9
2015-May-26 08:10N 45°33' W 122°42'1929.9
2015-May-26 07:31N 45°52' W 122°48'324432.5
2015-May-26 07:31N 46°12' W 123°23'431319.2
2015-May-26 07:29N 45°37' W 122°48'6421.8
2015-May-26 07:28N 45°33' W 122°42'34640.9
2015-May-26 07:25N 46°05' W 122°56'0 0.0
2015-May-26 06:31N 46°05' W 122°56'2018321.4
2015-May-26 06:31N 46°12' W 123°23'491067.7
2015-May-26 06:28N 45°33' W 122°42'6164.8
2015-May-26 06:26N 45°37' W 122°48'151186.4
2015-May-26 06:25N 45°52' W 122°48'0 0.0
2015-May-26 05:31N 45°52' W 122°48'142891.3
2015-May-26 05:31N 46°05' W 122°56'34712.5
2015-May-26 05:28N 45°33' W 122°42'6164.9
2015-May-26 05:26N 45°37' W 122°48'432374.3
2015-May-26 05:25N 46°12' W 123°23'4348.6
2015-May-26 04:32N 45°37' W 122°48'291720.0
2015-May-26 04:31N 46°05' W 122°56'20200.8
2015-May-26 04:25N 46°12' W 123°23'49332.9
2015-May-26 04:16N 45°33' W 122°42'19197.8
2015-May-26 04:10N 45°52' W 122°48'1523.3
2015-May-26 03:32N 45°37' W 122°48'151212.9
2015-May-26 03:31N 45°52' W 122°48'142740.2
2015-May-26 03:31N 46°05' W 122°56'2036642.8
2015-May-26 03:31N 46°12' W 123°23'491030.0
2015-May-26 03:28N 45°33' W 122°42'6 6.0
2015-May-26 02:29N 45°37' W 122°48'151241.1
2015-May-26 02:28N 45°52' W 122°48'19187.1
2015-May-26 02:22N 45°33' W 122°42'49916.8
2015-May-26 02:19N 46°12' W 123°23'20204.1
2015-May-26 02:13N 46°05' W 122°56'2030.5
2015-May-26 01:33N 46°12' W 123°23'432806.4
2015-May-26 01:32N 45°37' W 122°48'291664.8
2015-May-26 01:31N 46°05' W 122°56'34227.6
2015-May-26 01:22N 45°33' W 122°42'19200.0
2015-May-26 01:16N 45°52' W 122°48'3243.7
2015-May-26 00:32N 46°12' W 123°23'43771.7
2015-May-26 00:29N 45°37' W 122°48'151186.4
2015-May-26 00:28N 45°52' W 122°48'142740.2
2015-May-26 00:28N 46°05' W 122°56'34170.4
2015-May-26 00:16N 45°33' W 122°42'4966.7
2015-May-25 23:32N 46°12' W 123°23'437349.1
2015-May-25 23:32N 45°37' W 122°48'291587.7
2015-May-25 23:31N 46°05' W 122°56'14333.6
2015-May-25 23:28N 45°52' W 122°48'1995.1
2015-May-25 23:16N 45°33' W 122°42'1924.3
2015-May-25 22:28N 45°52' W 122°48'196962.2
2015-May-25 22:28N 45°33' W 122°42'491667.7
2015-May-25 22:26N 46°12' W 123°23'436710.1
2015-May-25 22:26N 45°37' W 122°48'29107.2
2015-May-25 22:10N 46°05' W 122°56'2032.2
2015-May-25 21:32N 46°12' W 123°23'43154331.6
2015-May-25 21:32N 45°37' W 122°48'15237.2
2015-May-25 21:28N 45°52' W 122°48'196327.4
2015-May-25 21:28N 45°33' W 122°42'3411011.4
2015-May-25 21:28N 46°05' W 122°56'2021.9
2015-May-25 20:32N 46°12' W 123°23'49729.6
2015-May-25 20:28N 45°33' W 122°42'19416.9
2015-May-25 20:25N 45°52' W 122°48'142478.3
2015-May-25 20:25N 46°05' W 122°56'29219.1
2015-May-25 20:17N 45°37' W 122°48'4350.4
2015-May-25 19:26N 46°12' W 123°23'322561.3
2015-May-25 19:25N 45°52' W 122°48'14137.0
2015-May-25 19:19N 46°05' W 122°56'34708.3
2015-May-25 19:16N 45°33' W 122°42'6171.6
2015-May-25 19:14N 45°37' W 122°48'0 0.0
2015-May-25 18:32N 45°37' W 122°48'291517.6
2015-May-25 18:31N 46°05' W 122°56'14331.5
2015-May-25 18:28N 45°52' W 122°48'32841.2
2015-May-25 18:26N 46°12' W 123°23'0 0.0
2015-May-25 17:32N 46°12' W 123°23'322744.3
2015-May-25 17:31N 45°52' W 122°48'142740.2
2015-May-25 17:31N 46°05' W 122°56'29860.0
2015-May-25 17:29N 45°37' W 122°48'6376.6
2015-May-25 17:28N 45°33' W 122°42'4952.1
2015-May-25 16:32N 46°12' W 123°23'322680.5
2015-May-25 16:31N 45°52' W 122°48'142479.2
2015-May-25 16:31N 46°05' W 122°56'34700.1
2015-May-25 16:28N 45°33' W 122°42'4952.1
2015-May-25 15:32N 46°12' W 123°23'322743.9
2015-May-25 15:31N 45°52' W 122°48'15170.0
2015-May-25 15:26N 45°37' W 122°48'29130.5
2015-May-25 15:13N 46°05' W 122°56'34712.5
2015-May-25 15:10N 45°33' W 122°42'4976.7
2015-May-25 14:32N 46°12' W 123°23'201077.7
2015-May-25 14:31N 46°05' W 122°56'29921.4
2015-May-25 14:29N 45°37' W 122°48'151368.3
2015-May-25 14:28N 45°52' W 122°48'193866.7
2015-May-25 14:28N 45°33' W 122°42'6 6.0
2015-May-25 13:29N 45°37' W 122°48'43154331.6
2015-May-25 13:29N 46°12' W 123°23'201062.1
2015-May-25 13:28N 46°05' W 122°56'14155.8
2015-May-25 13:22N 45°52' W 122°48'19149.1
2015-May-25 13:14N 45°33' W 122°42'4968.7
2015-May-25 12:32N 46°12' W 123°23'201077.7
2015-May-25 12:31N 46°05' W 122°56'14340.3
2015-May-25 12:28N 45°52' W 122°48'19627.0
2015-May-25 12:26N 45°33' W 122°42'654.5
2015-May-25 12:20N 45°37' W 122°48'0 0.0
2015-May-25 11:32N 45°37' W 122°48'4330869.9
2015-May-25 11:32N 46°12' W 123°23'201093.8
2015-May-25 11:31N 46°05' W 122°56'34194.1
2015-May-25 11:20N 45°33' W 122°42'19994.3
2015-May-25 11:19N 45°52' W 122°48'1417.9
2015-May-25 10:31N 46°05' W 122°56'20666.2
2015-May-25 10:29N 46°12' W 123°23'322505.3
2015-May-25 10:28N 45°52' W 122°48'19148.1
2015-May-25 10:20N 45°33' W 122°42'6102.5
2015-May-25 10:17N 45°37' W 122°48'4357.1
2015-May-25 09:32N 46°12' W 123°23'201093.8
2015-May-25 09:31N 46°05' W 122°56'29946.8
2015-May-25 09:29N 45°37' W 122°48'6138.9
2015-May-25 09:26N 45°33' W 122°42'19994.6
2015-May-25 09:25N 45°52' W 122°48'3236.0
2015-May-25 08:32N 46°12' W 123°23'43882.0
2015-May-25 08:29N 45°37' W 122°48'151186.4
2015-May-25 08:28N 45°52' W 122°48'14134.5
2015-May-25 08:22N 46°05' W 122°56'341424.8
2015-May-25 08:20N 45°33' W 122°42'3440.7
2015-May-25 07:31N 46°05' W 122°56'29964.5
2015-May-25 07:29N 45°37' W 122°48'151185.9
2015-May-25 07:28N 45°52' W 122°48'32817.4
2015-May-25 07:26N 46°12' W 123°23'49530.6
2015-May-25 07:20N 45°33' W 122°42'4960.1
2015-May-25 06:32N 46°12' W 123°23'201093.8
2015-May-25 06:31N 46°05' W 122°56'34462.3
2015-May-25 06:26N 45°33' W 122°42'19283.0
2015-May-25 06:22N 45°52' W 122°48'15392.6
2015-May-25 06:20N 45°37' W 122°48'4353.5
2015-May-25 05:32N 46°12' W 123°23'491167.4
2015-May-25 05:29N 45°33' W 122°42'191039.1
2015-May-25 05:28N 45°52' W 122°48'14247.8
2015-May-25 05:25N 46°05' W 122°56'29982.8
2015-May-25 05:23N 45°37' W 122°48'0 0.0
2015-May-25 04:32N 45°37' W 122°48'43821.0
2015-May-25 04:29N 46°12' W 123°23'323032.8
2015-May-25 04:28N 45°52' W 122°48'141734.8
2015-May-25 04:28N 46°05' W 122°56'341425.0
2015-May-25 04:26N 45°33' W 122°42'0 0.0
2015-May-25 03:32N 45°33' W 122°42'191054.6
2015-May-25 03:31N 45°52' W 122°48'14247.9
2015-May-25 03:28N 46°05' W 122°56'29364.7
2015-May-25 03:23N 45°37' W 122°48'43281.1
2015-May-25 03:14N 46°12' W 123°23'2028.3
2015-May-25 02:31N 46°05' W 122°56'14354.2
2015-May-25 02:28N 45°52' W 122°48'15389.7
2015-May-25 02:26N 45°37' W 122°48'619.9
2015-May-25 02:08N 45°33' W 122°42'49850.0
2015-May-25 02:05N 46°12' W 123°23'0 0.0
2015-May-25 01:29N 46°12' W 123°23'491183.0
2015-May-25 01:26N 45°33' W 122°42'341288.3
2015-May-25 01:25N 46°05' W 122°56'29221.5
2015-May-25 01:17N 45°37' W 122°48'15241.7
2015-May-25 01:13N 45°52' W 122°48'1928.3
2015-May-25 00:32N 45°33' W 122°42'61110.8
2015-May-25 00:32N 45°37' W 122°48'4314030.1
2015-May-25 00:32N 46°12' W 123°23'323292.7
2015-May-25 00:31N 45°52' W 122°48'14249.0
2015-May-25 00:28N 46°05' W 122°56'3436.4
2015-May-24 23:32N 45°33' W 122°42'61172.5
2015-May-24 23:32N 45°37' W 122°48'4315433.2
2015-May-24 23:32N 46°12' W 123°23'323201.3
2015-May-24 23:31N 45°52' W 122°48'141626.4
2015-May-24 23:31N 46°05' W 122°56'2020.7
2015-May-24 22:32N 46°12' W 123°23'32543.6
2015-May-24 22:28N 45°52' W 122°48'15386.9
2015-May-24 22:26N 45°37' W 122°48'29235.6
2015-May-24 22:19N 46°05' W 122°56'3443.5
2015-May-24 21:32N 45°33' W 122°42'61318.2
2015-May-24 21:32N 45°37' W 122°48'151160.6
2015-May-24 21:31N 45°52' W 122°48'32778.7
2015-May-24 21:29N 46°12' W 123°23'20171.6
2015-May-24 21:22N 46°05' W 122°56'2934.6
2015-May-24 20:32N 45°37' W 122°48'15132.8
2015-May-24 20:25N 45°52' W 122°48'141406.6
2015-May-24 20:25N 46°05' W 122°56'34194.4
2015-May-24 20:14N 45°33' W 122°42'496038.2
2015-May-24 20:14N 46°12' W 123°23'0 0.0
2015-May-24 19:32N 46°12' W 123°23'20295.5
2015-May-24 19:28N 46°05' W 122°56'341459.3
2015-May-24 19:26N 45°33' W 122°42'19288.9
2015-May-24 19:22N 45°52' W 122°48'15389.7
2015-May-24 19:20N 45°37' W 122°48'4353.4
2015-May-24 18:32N 46°12' W 123°23'323389.6
2015-May-24 18:31N 45°52' W 122°48'15398.6
2015-May-24 18:29N 45°37' W 122°48'29128.7
2015-May-24 18:16N 46°05' W 122°56'2939.4
2015-May-24 17:32N 45°37' W 122°48'43416.0
2015-May-24 17:26N 46°12' W 123°23'20295.5
2015-May-24 17:22N 46°05' W 122°56'14361.4
2015-May-24 17:19N 45°52' W 122°48'3240.5
2015-May-24 16:32N 46°12' W 123°23'323974.5
2015-May-24 16:31N 45°52' W 122°48'141335.0
2015-May-24 16:31N 46°05' W 122°56'29223.9
2015-May-24 16:23N 45°37' W 122°48'6130.3
2015-May-24 16:20N 45°33' W 122°42'6 7.3
2015-May-24 15:32N 45°37' W 122°48'291274.1
2015-May-24 15:31N 46°05' W 122°56'14366.6
2015-May-24 15:28N 45°52' W 122°48'32167.8
2015-May-24 15:17N 46°12' W 123°23'0 0.0
2015-May-24 14:32N 46°12' W 123°23'323841.5
2015-May-24 14:31N 45°52' W 122°48'14238.7
2015-May-24 14:28N 46°05' W 122°56'291053.0
2015-May-24 14:26N 45°37' W 122°48'1516.2
2015-May-24 13:31N 45°52' W 122°48'141446.2
2015-May-24 13:31N 46°05' W 122°56'291032.2
2015-May-24 13:29N 45°37' W 122°48'4310290.0
2015-May-24 13:29N 46°12' W 123°23'4951.7
2015-May-24 12:32N 45°33' W 122°42'495648.6
2015-May-24 12:32N 46°12' W 123°23'201201.4
2015-May-24 12:31N 46°05' W 122°56'14160.2
2015-May-24 12:25N 45°52' W 122°48'15392.6
2015-May-24 12:23N 45°37' W 122°48'6 6.9
2015-May-24 11:32N 45°33' W 122°42'341261.7
2015-May-24 11:31N 46°05' W 122°56'291064.1
2015-May-24 11:29N 45°37' W 122°48'43413.8
2015-May-24 11:23N 46°12' W 123°23'32296.3
2015-May-24 11:16N 45°52' W 122°48'1926.3
2015-May-24 10:32N 45°33' W 122°42'61507.6
2015-May-24 10:32N 45°37' W 122°48'43787.5
2015-May-24 10:29N 46°12' W 123°23'324433.1
2015-May-24 10:28N 45°52' W 122°48'1489.9
2015-May-24 10:19N 46°05' W 122°56'2936.9
2015-May-24 09:32N 45°37' W 122°48'439078.3
2015-May-24 09:32N 46°12' W 123°23'324609.8
2015-May-24 09:31N 45°52' W 122°48'14235.5
2015-May-24 09:28N 46°05' W 122°56'341442.0
2015-May-24 09:26N 45°33' W 122°42'6 6.5
2015-May-24 08:32N 45°37' W 122°48'151213.3
2015-May-24 08:31N 45°52' W 122°48'32758.2
2015-May-24 08:29N 46°12' W 123°23'20120.3
2015-May-24 08:19N 46°05' W 122°56'34457.1
2015-May-24 08:14N 45°33' W 122°42'0 0.0
2015-May-24 07:32N 45°33' W 122°42'61918.7
2015-May-24 07:32N 45°37' W 122°48'15239.4
2015-May-24 07:28N 45°52' W 122°48'32738.8
2015-May-24 07:26N 46°12' W 123°23'20172.0
2015-May-24 07:19N 46°05' W 122°56'2936.9
2015-May-24 06:32N 45°37' W 122°48'43787.5
2015-May-24 06:29N 46°12' W 123°23'324610.4
2015-May-24 06:28N 45°52' W 122°48'141210.8
2015-May-24 06:28N 46°05' W 122°56'34104.1
2015-May-24 06:08N 45°33' W 122°42'6 9.7
2015-May-24 05:32N 45°37' W 122°48'437015.1
2015-May-24 05:32N 46°12' W 123°23'325238.4
2015-May-24 05:31N 45°52' W 122°48'14128.8
2015-May-24 05:25N 46°05' W 122°56'34194.1
2015-May-24 05:14N 45°33' W 122°42'0 0.0
2015-May-24 04:32N 45°33' W 122°42'61917.3
2015-May-24 04:32N 45°37' W 122°48'438123.7
2015-May-24 04:32N 46°12' W 123°23'324802.5
2015-May-24 04:31N 45°52' W 122°48'141183.3
2015-May-24 04:31N 46°05' W 122°56'3434.6
2015-May-24 03:32N 45°33' W 122°42'6111.1
2015-May-24 03:29N 45°37' W 122°48'437349.1
2015-May-24 03:29N 46°12' W 123°23'325011.3
2015-May-24 03:28N 45°52' W 122°48'14231.4
2015-May-24 03:25N 46°05' W 122°56'3438.6
2015-May-24 02:32N 45°33' W 122°42'657.0
2015-May-24 02:26N 45°37' W 122°48'1570.2
2015-May-24 02:13N 45°52' W 122°48'14231.4
2015-May-24 02:10N 46°05' W 122°56'2945.8
2015-May-24 01:32N 45°37' W 122°48'15237.3
2015-May-24 01:28N 45°52' W 122°48'141301.1
2015-May-24 01:28N 46°05' W 122°56'341408.2
2015-May-24 01:26N 45°33' W 122°42'49188.5
2015-May-24 01:11N 46°12' W 123°23'4366.5
2015-May-24 00:32N 45°37' W 122°48'151241.6
2015-May-24 00:31N 45°52' W 122°48'141107.7
2015-May-24 00:31N 46°05' W 122°56'20642.9
2015-May-24 00:29N 46°12' W 123°23'0 0.0
2015-May-23 23:26N 46°12' W 123°23'201110.4
2015-May-23 23:25N 46°05' W 122°56'29380.9
2015-May-23 23:20N 45°37' W 122°48'151135.9
2015-May-23 23:19N 45°52' W 122°48'1518.8
2015-May-23 22:32N 45°37' W 122°48'291121.7
2015-May-23 22:31N 46°05' W 122°56'14397.3
2015-May-23 22:28N 45°52' W 122°48'19527.4
2015-May-23 22:26N 45°33' W 122°42'49452.5
2015-May-23 22:20N 46°12' W 123°23'4961.4
2015-May-23 21:32N 45°33' W 122°42'497004.3
2015-May-23 21:32N 46°12' W 123°23'43453.9
2015-May-23 21:26N 45°37' W 122°48'15237.2
2015-May-23 21:22N 45°52' W 122°48'14228.4
2015-May-23 21:19N 46°05' W 122°56'2937.0
2015-May-23 20:32N 45°37' W 122°48'436431.2
2015-May-23 20:32N 46°12' W 123°23'326065.6
2015-May-23 20:31N 45°52' W 122°48'14127.6
2015-May-23 20:25N 46°05' W 122°56'2931.0
2015-May-23 19:29N 45°37' W 122°48'6119.9
2015-May-23 19:26N 45°33' W 122°42'191338.9
2015-May-23 19:25N 45°52' W 122°48'32222.1
2015-May-23 19:17N 46°12' W 123°23'201093.8
2015-May-23 19:16N 46°05' W 122°56'2939.6
2015-May-23 18:32N 45°37' W 122°48'291097.9
2015-May-23 18:31N 46°05' W 122°56'34194.1
2015-May-23 18:20N 45°33' W 122°42'495472.1
2015-May-23 18:20N 46°12' W 123°23'326780.0
2015-May-23 18:19N 45°52' W 122°48'3240.3
2015-May-23 17:32N 46°12' W 123°23'326402.5
2015-May-23 17:31N 45°52' W 122°48'141107.3
2015-May-23 17:31N 46°05' W 122°56'291173.0
2015-May-23 17:29N 45°37' W 122°48'623.5
2015-May-23 17:14N 45°33' W 122°42'3446.2
2015-May-23 16:31N 46°05' W 122°56'29388.0
2015-May-23 16:26N 45°37' W 122°48'43749.2
2015-May-23 16:23N 46°12' W 123°23'327203.7
2015-May-23 16:22N 45°52' W 122°48'1923.1
2015-May-23 15:32N 45°33' W 122°42'621105.9
2015-May-23 15:32N 45°37' W 122°48'291075.0
2015-May-23 15:31N 46°05' W 122°56'20654.3
2015-May-23 15:29N 46°12' W 123°23'32579.1
2015-May-23 15:25N 45°52' W 122°48'1921.8
2015-May-23 14:32N 45°33' W 122°42'191582.3
2015-May-23 14:32N 45°52' W 122°48'15386.9
2015-May-23 14:29N 45°37' W 122°48'436173.3
2015-May-23 14:29N 46°12' W 123°23'20293.1
2015-May-23 14:25N 46°05' W 122°56'2023.1
2015-May-23 13:32N 46°12' W 123°23'326403.3
2015-May-23 13:32N 45°52' W 122°48'14982.3
2015-May-23 13:31N 46°05' W 122°56'291228.8
2015-May-23 13:29N 45°37' W 122°48'639.3
2015-May-23 13:20N 45°33' W 122°42'6 7.3
2015-May-23 12:32N 45°37' W 122°48'151213.3
2015-May-23 12:32N 45°52' W 122°48'14982.3
2015-May-23 12:31N 46°05' W 122°56'20654.3
2015-May-23 12:29N 46°12' W 123°23'3231.9
2015-May-23 11:29N 45°52' W 122°48'15395.5
2015-May-23 11:26N 45°37' W 122°48'43738.5
2015-May-23 11:23N 46°12' W 123°23'4350.9
2015-May-23 10:32N 45°37' W 122°48'151135.9
2015-May-23 10:31N 45°52' W 122°48'141000.8
2015-May-23 10:31N 46°05' W 122°56'20251.0
2015-May-23 10:26N 46°12' W 123°23'49972.9
2015-May-23 10:23N 45°33' W 122°42'4957.3
2015-May-23 09:32N 46°12' W 123°23'431028.9
2015-May-23 09:29N 45°37' W 122°48'151185.9
2015-May-23 09:29N 45°52' W 122°48'14929.7
2015-May-23 09:28N 46°05' W 122°56'2931.1
2015-May-23 08:32N 45°37' W 122°48'434978.4
2015-May-23 08:32N 46°12' W 123°23'201077.7
2015-May-23 08:31N 46°05' W 122°56'14413.2
2015-May-23 08:29N 45°52' W 122°48'19446.2
2015-May-23 08:26N 45°33' W 122°42'4954.0
2015-May-23 07:32N 46°12' W 123°23'20990.3
2015-May-23 07:31N 46°05' W 122°56'29397.0
2015-May-23 07:26N 45°37' W 122°48'61110.0
2015-May-23 07:26N 45°33' W 122°42'192784.1
2015-May-23 07:26N 45°52' W 122°48'1921.6
2015-May-23 06:32N 45°33' W 122°42'341593.8
2015-May-23 06:31N 46°05' W 122°56'29397.0
2015-May-23 06:26N 45°37' W 122°48'43717.9
2015-May-23 06:23N 46°12' W 123°23'32606.6
2015-May-23 06:20N 45°52' W 122°48'1518.8
2015-May-23 05:32N 45°37' W 122°48'434822.9
2015-May-23 05:32N 46°12' W 123°23'329605.0
2015-May-23 05:32N 45°52' W 122°48'14221.5
2015-May-23 05:28N 46°05' W 122°56'341187.5
2015-May-23 05:26N 45°33' W 122°42'6 6.6
2015-May-23 04:32N 45°37' W 122°48'61110.8
2015-May-23 04:32N 45°33' W 122°42'34462.3
2015-May-23 04:28N 46°05' W 122°56'20666.2
2015-May-23 04:26N 46°12' W 123°23'32623.0
2015-May-23 04:23N 45°52' W 122°48'1517.7
2015-May-23 03:32N 45°37' W 122°48'151212.9
2015-May-23 03:32N 45°52' W 122°48'14897.7
2015-May-23 03:31N 46°05' W 122°56'20654.3
2015-May-23 03:29N 46°12' W 123°23'4345.6
2015-May-23 02:32N 45°37' W 122°48'435322.4
2015-May-23 02:32N 46°12' W 123°23'201017.9
2015-May-23 02:31N 46°05' W 122°56'14173.0
2015-May-23 02:26N 45°52' W 122°48'1516.7
2015-May-23 01:32N 45°37' W 122°48'29992.3
2015-May-23 01:31N 46°05' W 122°56'1478.7
2015-May-23 01:20N 45°52' W 122°48'32677.9
2015-May-23 01:17N 46°12' W 123°23'4965.0
2015-May-23 00:32N 45°33' W 122°42'194095.4
2015-May-23 00:32N 45°52' W 122°48'14867.4
2015-May-23 00:31N 46°05' W 122°56'20251.0
2015-May-23 00:26N 46°12' W 123°23'43473.4
2015-May-23 00:20N 45°37' W 122°48'6 7.3
2015-May-22 23:32N 45°33' W 122°42'4919456.4
2015-May-22 23:32N 46°12' W 123°23'32609.8
2015-May-22 23:29N 45°52' W 122°48'14913.4
2015-May-22 23:28N 46°05' W 122°56'29234.1
2015-May-22 23:20N 45°37' W 122°48'2934.6
2015-May-22 22:31N 46°05' W 122°56'291323.1
2015-May-22 22:29N 45°37' W 122°48'151213.3
2015-May-22 22:29N 45°52' W 122°48'32677.9
2015-May-22 22:26N 46°12' W 123°23'49163.8
2015-May-22 22:08N 45°33' W 122°42'3454.1
2015-May-22 21:31N 46°05' W 122°56'29404.7
2015-May-22 21:26N 45°37' W 122°48'15132.1
2015-May-22 21:20N 45°52' W 122°48'1518.8
2015-May-22 20:32N 45°37' W 122°48'29363.4
2015-May-22 20:28N 46°05' W 122°56'341211.0
2015-May-22 20:26N 45°33' W 122°42'194094.2
2015-May-22 20:26N 45°52' W 122°48'1516.7
2015-May-22 19:32N 45°37' W 122°48'29992.3
2015-May-22 19:31N 46°05' W 122°56'14433.7
2015-May-22 19:29N 45°52' W 122°48'32670.0
2015-May-22 19:26N 46°12' W 123°23'0 0.0
2015-May-22 18:33N 46°12' W 123°23'438122.7
2015-May-22 18:32N 45°37' W 122°48'6781.7
2015-May-22 18:32N 45°33' W 122°42'19351.5
2015-May-22 18:29N 45°52' W 122°48'14216.0
2015-May-22 18:25N 46°05' W 122°56'2932.9
2015-May-22 17:32N 45°37' W 122°48'151161.1
2015-May-22 17:32N 45°52' W 122°48'14216.0
2015-May-22 17:28N 46°05' W 122°56'201308.7
2015-May-22 17:27N 46°12' W 123°23'493806.3
2015-May-22 17:26N 45°33' W 122°42'6 6.6
2015-May-22 16:32N 45°37' W 122°48'29964.5
2015-May-22 16:31N 46°05' W 122°56'14177.7
2015-May-22 16:26N 45°52' W 122°48'32112.8
2015-May-22 16:09N 46°12' W 123°23'4370.9
2015-May-22 15:32N 45°37' W 122°48'151368.9
2015-May-22 15:32N 45°52' W 122°48'32952.4
2015-May-22 15:30N 46°12' W 123°23'2071.4
2015-May-22 15:13N 46°05' W 122°56'1421.2
2015-May-22 14:32N 45°52' W 122°48'14826.1
2015-May-22 14:31N 46°05' W 122°56'201357.1
2015-May-22 14:30N 46°12' W 123°23'43775.5
2015-May-22 14:26N 45°37' W 122°48'654.1
2015-May-22 14:20N 45°33' W 122°42'4961.8
2015-May-22 13:33N 46°12' W 123°23'49431.3
2015-May-22 13:26N 45°33' W 122°42'6141.5
2015-May-22 13:23N 45°37' W 122°48'151213.3
2015-May-22 13:23N 45°52' W 122°48'14801.0
2015-May-22 13:22N 46°05' W 122°56'0 0.0
2015-May-22 12:31N 46°05' W 122°56'14460.7
2015-May-22 12:29N 45°52' W 122°48'15389.7
2015-May-22 12:26N 45°37' W 122°48'6100.0
2015-May-22 12:23N 45°33' W 122°42'49259.8
2015-May-22 12:12N 46°12' W 123°23'4973.4
2015-May-22 11:32N 45°33' W 122°42'341514.1
2015-May-22 11:31N 46°05' W 122°56'201382.7
2015-May-22 11:30N 46°12' W 123°23'321987.2
2015-May-22 11:29N 45°52' W 122°48'15166.8
2015-May-22 11:23N 45°37' W 122°48'2932.6
2015-May-22 10:31N 46°05' W 122°56'20314.5
2015-May-22 10:27N 46°12' W 123°23'43787.4
2015-May-22 10:23N 45°37' W 122°48'151271.1
2015-May-22 10:23N 45°52' W 122°48'19198.9
2015-May-22 10:17N 45°33' W 122°42'4966.0
2015-May-22 09:33N 46°12' W 123°23'494072.7
2015-May-22 09:32N 45°33' W 122°42'194641.5
2015-May-22 09:32N 45°52' W 122°48'14788.5
2015-May-22 09:31N 46°05' W 122°56'29416.1
2015-May-22 09:26N 45°37' W 122°48'6 6.4
2015-May-22 08:32N 45°33' W 122°42'491347.0
2015-May-22 08:30N 46°12' W 123°23'321953.3
2015-May-22 08:29N 45°52' W 122°48'14209.0
2015-May-22 08:25N 46°05' W 122°56'29412.8
2015-May-22 08:20N 45°37' W 122°48'0 0.0
2015-May-22 07:32N 45°37' W 122°48'151271.1
2015-May-22 07:32N 45°52' W 122°48'14777.1
2015-May-22 07:31N 46°05' W 122°56'20175.7
2015-May-22 07:24N 46°12' W 123°23'493891.3
2015-May-22 07:23N 45°33' W 122°42'4958.1
2015-May-22 06:33N 46°12' W 123°23'439646.8
2015-May-22 06:32N 45°37' W 122°48'15239.4
2015-May-22 06:29N 45°52' W 122°48'14121.4
2015-May-22 06:22N 46°05' W 122°56'34262.7
2015-May-22 06:14N 45°33' W 122°42'6 7.4
2015-May-22 05:27N 45°37' W 122°48'29921.4
2015-May-22 05:25N 46°05' W 122°56'20311.9
2015-May-22 05:21N 46°12' W 123°23'322174.5
2015-May-22 05:20N 45°52' W 122°48'0 0.0
2015-May-22 04:32N 45°52' W 122°48'15168.9
2015-May-22 04:27N 45°37' W 122°48'29349.8
2015-May-22 04:22N 46°05' W 122°56'20144.5
2015-May-22 04:13N 46°12' W 123°23'4363.3
2015-May-22 03:33N 45°37' W 122°48'15239.4
2015-May-22 03:29N 45°52' W 122°48'323390.0
2015-May-22 03:28N 46°12' W 123°23'49353.0
2015-May-22 03:20N 45°33' W 122°42'34275.3
2015-May-22 03:13N 46°05' W 122°56'2942.9
2015-May-22 02:33N 45°37' W 122°48'151271.1
2015-May-22 02:32N 45°52' W 122°48'14121.1
2015-May-22 02:25N 46°05' W 122°56'20222.8
2015-May-22 02:19N 46°12' W 123°23'49555.9
2015-May-22 02:14N 45°33' W 122°42'3446.6
2015-May-22 01:31N 46°05' W 122°56'20505.4
2015-May-22 01:28N 46°12' W 123°23'32355.7
2015-May-22 01:23N 45°52' W 122°48'1416.6
2015-May-22 00:31N 46°05' W 122°56'291612.5
2015-May-22 00:30N 45°37' W 122°48'6555.4
2015-May-22 00:29N 45°33' W 122°42'1964.1
2015-May-22 00:11N 45°52' W 122°48'1929.8
2015-May-21 23:32N 45°33' W 122°42'19374.2
2015-May-21 23:29N 45°52' W 122°48'14713.2
2015-May-21 23:28N 46°05' W 122°56'291612.8
2015-May-21 23:27N 45°37' W 122°48'431859.6
2015-May-21 23:25N 46°12' W 123°23'4348.9
2015-May-21 22:33N 45°37' W 122°48'15240.5
2015-May-21 22:29N 45°52' W 122°48'14703.3
2015-May-21 22:28N 46°05' W 122°56'34147.5
2015-May-21 22:14N 45°33' W 122°42'49430.2
2015-May-21 22:07N 46°12' W 123°23'4982.8
2015-May-21 21:32N 45°33' W 122°42'493807.1
2015-May-21 21:31N 46°12' W 123°23'32829.2
2015-May-21 21:29N 45°52' W 122°48'15169.5
2015-May-21 21:24N 45°37' W 122°48'29874.6
2015-May-21 21:22N 46°05' W 122°56'1417.4
2015-May-21 20:32N 45°52' W 122°48'14693.9
2015-May-21 20:31N 46°05' W 122°56'29244.5
2015-May-21 20:24N 45°37' W 122°48'43347.6
2015-May-21 20:16N 46°12' W 123°23'3240.6
2015-May-21 19:29N 45°52' W 122°48'32528.7
2015-May-21 19:25N 46°12' W 123°23'2078.5
2015-May-21 19:10N 46°05' W 122°56'0 0.0
2015-May-21 18:28N 46°05' W 122°56'14525.7
2015-May-21 18:26N 45°52' W 122°48'322561.0
2015-May-21 18:25N 46°12' W 123°23'43338.5
2015-May-21 18:18N 45°37' W 122°48'0 0.0
2015-May-21 17:33N 45°37' W 122°48'431794.8
2015-May-21 17:31N 46°12' W 123°23'32835.1
2015-May-21 17:29N 45°52' W 122°48'14204.1
2015-May-21 17:25N 46°05' W 122°56'2022.9
2015-May-21 16:31N 46°12' W 123°23'202093.9
2015-May-21 16:31N 46°05' W 122°56'29430.0
2015-May-21 16:27N 45°37' W 122°48'15236.2
2015-May-21 16:23N 45°52' W 122°48'0 0.0
2015-May-21 15:32N 45°52' W 122°48'14684.8
2015-May-21 15:31N 46°05' W 122°56'20508.9
2015-May-21 15:28N 46°12' W 123°23'431624.5
2015-May-21 15:27N 45°37' W 122°48'0 0.0
2015-May-21 14:30N 45°37' W 122°48'431773.9
2015-May-21 14:28N 46°12' W 123°23'32841.2
2015-May-21 14:26N 45°52' W 122°48'14675.9
2015-May-21 14:25N 46°05' W 122°56'2022.9
2015-May-21 13:31N 46°12' W 123°23'32847.5
2015-May-21 13:29N 45°52' W 122°48'14659.0
2015-May-21 13:28N 46°05' W 122°56'29172.9
2015-May-21 13:18N 45°37' W 122°48'0 0.0
2015-May-21 12:33N 45°37' W 122°48'151160.6
2015-May-21 12:32N 45°52' W 122°48'14203.4
2015-May-21 12:28N 46°05' W 122°56'2081.7
2015-May-21 12:13N 46°12' W 123°23'49614.4
2015-May-21 12:08N 45°33' W 122°42'4982.7
2015-May-21 11:33N 46°12' W 123°23'322744.3
2015-May-21 11:32N 45°52' W 122°48'1934800.6
2015-May-21 11:32N 45°33' W 122°42'341573.1
2015-May-21 11:31N 46°05' W 122°56'29132.5
2015-May-21 11:18N 45°37' W 122°48'4357.2
2015-May-21 10:33N 46°12' W 123°23'494071.9
2015-May-21 10:32N 45°33' W 122°42'341513.8
2015-May-21 10:31N 46°05' W 122°56'14112.6
2015-May-21 10:23N 45°52' W 122°48'15170.0
2015-May-21 10:18N 45°37' W 122°48'4357.2
2015-May-21 09:33N 46°12' W 123°23'20586.3
2015-May-21 09:31N 46°05' W 122°56'291876.3
2015-May-21 09:30N 45°37' W 122°48'151241.6
2015-May-21 09:29N 45°52' W 122°48'19382.5
2015-May-21 09:26N 45°33' W 122°42'6 6.6
2015-May-21 08:33N 45°37' W 122°48'4351449.8
2015-May-21 08:33N 46°12' W 123°23'20244.3
2015-May-21 08:28N 46°05' W 122°56'1480.7
2015-May-21 08:17N 45°52' W 122°48'19384.5
2015-May-21 08:14N 45°33' W 122°42'4970.7
2015-May-21 07:33N 46°12' W 123°23'20600.7
2015-May-21 07:31N 46°05' W 122°56'29441.1
2015-May-21 07:27N 45°37' W 122°48'15236.2
2015-May-21 07:23N 45°52' W 122°48'1922.7
2015-May-21 06:32N 45°33' W 122°42'491287.6
2015-May-21 06:30N 46°12' W 123°23'20241.9
2015-May-21 06:25N 46°05' W 122°56'291876.7
2015-May-21 06:24N 45°37' W 122°48'151213.3
2015-May-21 06:23N 45°52' W 122°48'0 0.0
2015-May-21 05:32N 45°52' W 122°48'14198.6
2015-May-21 05:28N 46°05' W 122°56'291947.1
2015-May-21 05:27N 45°37' W 122°48'43241.9
2015-May-21 05:16N 46°12' W 123°23'4359.3
2015-May-21 04:33N 45°37' W 122°48'151241.6
2015-May-21 04:32N 45°52' W 122°48'322216.3
2015-May-21 04:31N 46°12' W 123°23'202290.2
2015-May-21 04:31N 46°05' W 122°56'2929.7
2015-May-21 03:33N 45°37' W 122°48'43341.4
2015-May-21 03:25N 46°12' W 123°23'202155.5
2015-May-21 03:25N 46°05' W 122°56'14542.3
2015-May-21 03:23N 45°52' W 122°48'1922.6
2015-May-21 02:32N 45°33' W 122°42'341863.5
2015-May-21 02:31N 46°05' W 122°56'29444.9
2015-May-21 02:27N 45°37' W 122°48'1591.3
2015-May-21 02:17N 45°52' W 122°48'1520.1
2015-May-21 01:33N 45°37' W 122°48'151302.1
2015-May-21 01:32N 45°52' W 122°48'193314.3
2015-May-21 01:32N 45°33' W 122°42'34494.4
2015-May-21 01:28N 46°05' W 122°56'2084.3
2015-May-21 01:13N 46°12' W 123°23'4363.7
2015-May-21 00:33N 45°37' W 122°48'6340.4
2015-May-21 00:32N 45°33' W 122°42'341892.6
2015-May-21 00:31N 46°05' W 122°56'14113.9
2015-May-21 00:23N 45°52' W 122°48'32357.9
2015-May-21 00:18N 46°12' W 123°23'4357.3
2015-May-20 23:33N 45°37' W 122°48'151213.3
2015-May-20 23:32N 45°52' W 122°48'193866.7
2015-May-20 23:32N 45°33' W 122°42'49207.0
2015-May-20 23:18N 46°12' W 123°23'20245.9
2015-May-20 23:13N 46°05' W 122°56'1421.4
2015-May-20 22:32N 45°52' W 122°48'14612.3
2015-May-20 22:31N 46°05' W 122°56'291911.1
2015-May-20 22:30N 45°37' W 122°48'4322047.4
2015-May-20 22:30N 46°12' W 123°23'0 0.0
2015-May-20 21:33N 46°12' W 123°23'32293.2
2015-May-20 21:26N 45°52' W 122°48'15168.4
2015-May-20 21:21N 45°37' W 122°48'6319.8
2015-May-20 21:20N 45°33' W 122°42'34498.5
2015-May-20 21:16N 46°05' W 122°56'0 0.0
2015-May-20 20:33N 46°05' W 122°56'14946.3
2015-May-20 20:32N 45°52' W 122°48'193315.4
2015-May-20 20:32N 45°33' W 122°42'671.8
2015-May-20 20:27N 45°37' W 122°48'4347.5
2015-May-20 19:33N 46°12' W 123°23'323115.1
2015-May-20 19:32N 45°52' W 122°48'193480.1
2015-May-20 19:32N 45°33' W 122°42'671.5
2015-May-20 19:27N 45°37' W 122°48'29298.3
2015-May-20 19:21N 46°05' W 122°56'0 0.0
2015-May-20 18:33N 46°05' W 122°56'202093.9
2015-May-20 18:32N 46°12' W 123°23'494072.3
2015-May-20 18:32N 45°33' W 122°42'19437.7
2015-May-20 18:29N 45°52' W 122°48'15395.3
2015-May-20 18:27N 45°37' W 122°48'2931.9
2015-May-20 17:33N 46°05' W 122°56'2914745.7
2015-May-20 17:33N 45°37' W 122°48'437717.5
2015-May-20 17:32N 46°12' W 123°23'493648.1
2015-May-20 17:32N 45°33' W 122°42'19135.4
2015-May-20 17:23N 45°52' W 122°48'1517.7
2015-May-20 16:33N 45°37' W 122°48'436710.1
2015-May-20 16:32N 46°12' W 123°23'325488.6
2015-May-20 16:32N 45°52' W 122°48'1515.0
2015-May-20 15:33N 45°37' W 122°48'435716.0
2015-May-20 15:32N 46°12' W 123°23'32585.0
2015-May-20 15:29N 45°52' W 122°48'1515.8
2015-May-20 14:33N 45°37' W 122°48'435935.8
2015-May-20 14:32N 46°12' W 123°23'32582.0
2015-May-20 14:29N 45°52' W 122°48'3233.9
2015-May-20 13:32N 46°12' W 123°23'43995.8
2015-May-20 13:30N 45°37' W 122°48'151213.3
2015-May-20 13:29N 45°52' W 122°48'3232.2
2015-May-20 12:29N 46°12' W 123°23'326780.0
2015-May-20 12:29N 45°52' W 122°48'1975.3
2015-May-20 12:14N 45°33' W 122°42'645.3
2015-May-20 12:06N 45°37' W 122°48'1526.3
2015-May-20 11:32N 45°52' W 122°48'32702.8
2015-May-20 11:29N 46°12' W 123°23'43463.5
2015-May-20 11:24N 45°37' W 122°48'4350.0
2015-May-20 10:32N 46°12' W 123°23'327683.1
2015-May-20 10:32N 45°52' W 122°48'19180.8
2015-May-20 10:26N 45°33' W 122°42'6190.1
2015-May-20 10:24N 45°37' W 122°48'1517.2
2015-May-20 09:32N 45°52' W 122°48'192578.6
2015-May-20 09:32N 45°33' W 122°42'6190.1
2015-May-20 09:30N 45°37' W 122°48'435322.4
2015-May-20 09:29N 46°12' W 123°23'4343.2
2015-May-20 08:30N 45°37' W 122°48'435936.5
2015-May-20 08:29N 46°12' W 123°23'327202.9
2015-May-20 08:29N 45°52' W 122°48'19233.6
2015-May-20 08:24N 45°33' W 122°42'6 6.5
2015-May-20 07:30N 45°37' W 122°48'151270.6
2015-May-20 07:29N 45°52' W 122°48'32694.3
2015-May-20 07:26N 46°12' W 123°23'49144.1
2015-May-20 07:06N 45°33' W 122°42'610.6
2015-May-20 06:33N 45°37' W 122°48'435321.8
2015-May-20 06:32N 46°12' W 123°23'491278.0
2015-May-20 06:30N 45°33' W 122°42'191242.9
2015-May-20 06:29N 45°52' W 122°48'1515.8
2015-May-20 05:33N 45°37' W 122°48'6127.1
2015-May-20 05:30N 45°33' W 122°42'49771.3
2015-May-20 05:26N 46°12' W 123°23'32600.2
2015-May-20 05:23N 45°52' W 122°48'1517.7
2015-May-20 04:33N 45°37' W 122°48'151270.6
2015-May-20 04:32N 45°52' W 122°48'32682.0
2015-May-20 04:29N 46°12' W 123°23'4345.6
2015-May-20 03:33N 45°37' W 122°48'435145.0
2015-May-20 03:32N 46°12' W 123°23'32309.0
2015-May-20 03:26N 45°52' W 122°48'1516.7
2015-May-20 02:33N 45°37' W 122°48'151186.9
2015-May-20 02:32N 45°52' W 122°48'32690.1
2015-May-20 02:29N 46°12' W 123°23'3233.6
2015-May-20 01:32N 45°52' W 122°48'32698.5
2015-May-20 01:29N 46°12' W 123°23'431022.2
2015-May-20 01:27N 45°37' W 122°48'640.0
2015-May-20 01:18N 45°33' W 122°42'4953.3
2015-May-20 00:23N 46°12' W 123°23'431042.8
2015-May-20 00:21N 45°37' W 122°48'6127.1
2015-May-20 00:18N 45°33' W 122°42'191221.4
2015-May-20 00:17N 45°52' W 122°48'1520.1
2015-May-19 23:33N 45°37' W 122°48'43717.8
2015-May-19 23:29N 46°12' W 123°23'3210476.9
2015-May-19 23:29N 45°52' W 122°48'19104.7
2015-May-19 23:18N 45°33' W 122°42'6 7.8
2015-May-19 22:33N 45°37' W 122°48'6124.9
2015-May-19 22:30N 45°33' W 122°42'191265.9
2015-May-19 22:29N 45°52' W 122°48'32329.3
2015-May-19 22:23N 46°12' W 123°23'4351.0
2015-May-19 21:33N 45°37' W 122°48'434409.5
2015-May-19 21:32N 46°12' W 123°23'491306.8
2015-May-19 21:30N 45°33' W 122°42'191243.3
2015-May-19 21:29N 45°52' W 122°48'1515.8
2015-May-19 20:33N 45°37' W 122°48'434287.0
2015-May-19 20:32N 46°12' W 123°23'32609.8
2015-May-19 20:29N 45°52' W 122°48'1967.9
2015-May-19 20:12N 45°33' W 122°42'4973.4
2015-May-19 19:32N 46°12' W 123°23'3211526.0
2015-May-19 19:32N 45°52' W 122°48'15404.3
2015-May-19 19:30N 45°37' W 122°48'0 0.0
2015-May-19 18:33N 45°37' W 122°48'6123.4
2015-May-19 18:30N 45°33' W 122°42'493725.7
2015-May-19 18:29N 46°12' W 123°23'3219210.0
2015-May-19 18:29N 45°52' W 122°48'3233.8
2015-May-19 17:32N 46°12' W 123°23'431102.4
2015-May-19 17:30N 45°37' W 122°48'151186.4
2015-May-19 17:29N 45°52' W 122°48'0 0.0
2015-May-19 16:29N 45°52' W 122°48'15389.7
2015-May-19 16:27N 45°37' W 122°48'43269.8
2015-May-19 16:18N 46°12' W 123°23'4357.9
2015-May-19 15:33N 45°37' W 122°48'433858.3
2015-May-19 15:32N 46°12' W 123°23'32314.0
2015-May-19 15:26N 45°52' W 122°48'3235.6
2015-May-19 14:32N 46°12' W 123°23'431094.6
2015-May-19 14:30N 45°37' W 122°48'1547.5
2015-May-19 14:11N 45°52' W 122°48'1523.3
2015-May-19 13:33N 45°37' W 122°48'434171.6
2015-May-19 13:32N 46°12' W 123°23'32616.4
2015-May-19 13:29N 45°52' W 122°48'1515.8
2015-May-19 12:33N 45°37' W 122°48'433957.7
2015-May-19 12:32N 46°12' W 123°23'32115259.7
2015-May-19 12:32N 45°52' W 122°48'1515.0
2015-May-19 11:33N 45°37' W 122°48'6124.1
2015-May-19 11:30N 45°33' W 122°42'49428.1
2015-May-19 11:23N 46°12' W 123°23'3238419.9
2015-May-19 11:23N 45°52' W 122°48'1517.7
2015-May-19 10:33N 45°37' W 122°48'151271.1
2015-May-19 10:32N 45°52' W 122°48'32658.5
2015-May-19 10:30N 46°12' W 123°23'49550.7
2015-May-19 10:24N 45°33' W 122°42'4956.4
2015-May-19 09:32N 46°12' W 123°23'491259.8
2015-May-19 09:30N 45°33' W 122°42'610552.9
2015-May-19 09:30N 45°37' W 122°48'151186.4
2015-May-19 09:29N 45°52' W 122°48'0 0.0
2015-May-19 08:32N 45°52' W 122°48'15167.9
2015-May-19 08:27N 45°37' W 122°48'433957.2
2015-May-19 08:26N 46°12' W 123°23'491297.1
2015-May-19 08:24N 45°33' W 122°42'6 6.9
2015-May-19 07:33N 45°37' W 122°48'6119.2
2015-May-19 07:30N 45°33' W 122°42'191450.0
2015-May-19 07:29N 45°52' W 122°48'32640.3
2015-May-19 07:26N 46°12' W 123°23'0 0.0
2015-May-19 06:32N 46°12' W 123°23'431126.5
2015-May-19 06:30N 45°37' W 122°48'15239.3
2015-May-19 06:26N 45°52' W 122°48'19141.7
2015-May-19 06:18N 45°33' W 122°42'6 7.8
2015-May-19 05:33N 45°37' W 122°48'433674.6
2015-May-19 05:32N 46°12' W 123°23'491316.6
2015-May-19 05:30N 45°33' W 122°42'1961.6
2015-May-19 05:11N 45°52' W 122°48'3249.3
2015-May-19 04:32N 46°12' W 123°23'491297.1
2015-May-19 04:30N 45°33' W 122°42'639.0
2015-May-19 04:21N 45°37' W 122°48'0 0.0
2015-May-19 03:33N 45°37' W 122°48'433764.2
2015-May-19 03:32N 46°12' W 123°23'49353.0
2015-May-19 03:24N 45°33' W 122°42'6 6.9
2015-May-19 02:33N 45°37' W 122°48'433215.2
2015-May-19 02:32N 46°12' W 123°23'32643.9
2015-May-19 02:29N 45°52' W 122°48'1949.8
2015-May-19 02:06N 45°33' W 122°42'6 9.8
2015-May-19 01:30N 45°37' W 122°48'43686.0
2015-May-19 01:26N 46°12' W 123°23'49354.5
2015-May-19 01:18N 45°33' W 122°42'191657.2
2015-May-19 01:18N 45°52' W 122°48'0 0.0
2015-May-19 00:32N 45°52' W 122°48'15503.7
2015-May-19 00:31N 45°37' W 122°48'616.3
2015-May-19 00:09N 45°33' W 122°42'49785.2
2015-May-19 00:05N 46°12' W 123°23'4379.8
2015-May-18 23:33N 45°37' W 122°48'43676.9
2015-May-18 23:29N 46°12' W 123°23'49554.1
2015-May-18 23:24N 45°33' W 122°42'19173.6
2015-May-18 23:17N 45°52' W 122°48'1520.1
2015-May-18 22:33N 45°37' W 122°48'15242.7
2015-May-18 22:30N 45°52' W 122°48'32314.9
2015-May-18 22:23N 46°12' W 123°23'49555.9
2015-May-18 22:18N 45°33' W 122°42'6 7.8
2015-May-18 21:33N 45°37' W 122°48'15242.6
2015-May-18 21:30N 45°52' W 122°48'32210.3
2015-May-18 21:20N 46°12' W 123°23'49353.8
2015-May-18 21:12N 45°33' W 122°42'0 0.0
2015-May-18 20:33N 45°33' W 122°42'621105.9
2015-May-18 20:33N 45°37' W 122°48'433283.7
2015-May-18 20:32N 46°12' W 123°23'32647.4
2015-May-18 20:29N 45°52' W 122°48'0 0.0
2015-May-18 19:33N 45°52' W 122°48'3223051.9
2015-May-18 19:32N 46°12' W 123°23'431178.1
2015-May-18 19:30N 45°37' W 122°48'658.8
2015-May-18 19:24N 45°33' W 122°42'6 6.9
2015-May-18 18:33N 45°37' W 122°48'433283.7
2015-May-18 18:32N 46°12' W 123°23'491297.1
2015-May-18 18:30N 45°33' W 122°42'191582.3
2015-May-18 18:29N 45°52' W 122°48'1515.8
2015-May-18 17:33N 45°37' W 122°48'6115.3
2015-May-18 17:30N 45°33' W 122°42'493806.7
2015-May-18 17:29N 46°12' W 123°23'32326.5
2015-May-18 17:24N 45°52' W 122°48'1517.7
2015-May-18 16:33N 45°37' W 122°48'65276.5
2015-May-18 16:33N 45°33' W 122°42'191832.2
2015-May-18 16:33N 45°52' W 122°48'3219207.6
2015-May-18 16:32N 46°12' W 123°23'4343.5
2015-May-18 15:33N 45°37' W 122°48'151213.3
2015-May-18 15:33N 45°52' W 122°48'3214405.7
2015-May-18 15:32N 46°12' W 123°23'49356.6
2015-May-18 15:24N 45°33' W 122°42'4956.4
2015-May-18 14:32N 46°12' W 123°23'43496.2
2015-May-18 14:27N 45°37' W 122°48'15240.5
2015-May-18 14:24N 45°52' W 122°48'1517.7
2015-May-18 13:33N 45°37' W 122°48'151368.9
2015-May-18 13:33N 45°52' W 122°48'3210478.2
2015-May-18 13:32N 46°12' W 123°23'4343.5
2015-May-18 12:33N 45°37' W 122°48'151302.1
2015-May-18 12:33N 45°52' W 122°48'3210478.2
2015-May-18 12:32N 46°12' W 123°23'3232.1
2015-May-18 11:33N 45°52' W 122°48'15386.9
2015-May-18 11:30N 45°37' W 122°48'43665.3
2015-May-18 11:26N 46°12' W 123°23'49144.1
2015-May-18 11:06N 45°33' W 122°42'1934.6
2015-May-18 10:33N 45°52' W 122°48'3211524.6
2015-May-18 10:32N 46°12' W 123°23'43504.4
2015-May-18 10:27N 45°37' W 122°48'6112.9
2015-May-18 10:24N 45°33' W 122°42'1922.5
2015-May-18 09:33N 45°52' W 122°48'3212806.6
2015-May-18 09:32N 46°12' W 123°23'43502.8
2015-May-18 09:27N 45°37' W 122°48'0 0.0
2015-May-18 08:33N 45°37' W 122°48'432858.3
2015-May-18 08:32N 46°12' W 123°23'32686.2
2015-May-18 08:30N 45°52' W 122°48'19213.5
2015-May-18 08:24N 45°33' W 122°42'6 6.9
2015-May-18 07:33N 45°37' W 122°48'433087.3
2015-May-18 07:33N 46°12' W 123°23'49349.6
2015-May-18 07:24N 45°33' W 122°42'19330.0
2015-May-18 07:21N 45°52' W 122°48'1518.8
2015-May-18 06:33N 45°37' W 122°48'432858.0
2015-May-18 06:32N 46°12' W 123°23'491297.1
2015-May-18 06:30N 45°33' W 122°42'192047.1
2015-May-18 06:30N 45°52' W 122°48'1515.8
2015-May-18 05:33N 45°37' W 122°48'432755.9
2015-May-18 05:32N 46°12' W 123°23'32681.9
2015-May-18 05:30N 45°52' W 122°48'3233.6
2015-May-18 04:32N 46°12' W 123°23'32686.1
2015-May-18 04:30N 45°52' W 122°48'15169.5
2015-May-18 04:24N 45°37' W 122°48'638.3
2015-May-18 04:15N 45°33' W 122°42'6 8.4
2015-May-18 03:33N 45°37' W 122°48'15240.5
2015-May-18 03:30N 45°52' W 122°48'19212.8
2015-May-18 03:24N 45°33' W 122°42'49298.3
2015-May-18 03:14N 46°12' W 123°23'0 0.0
2015-May-18 02:29N 46°12' W 123°23'431244.8
2015-May-18 02:27N 45°37' W 122°48'6114.6
2015-May-18 02:24N 45°33' W 122°42'19174.4
2015-May-18 02:18N 45°52' W 122°48'1520.1
2015-May-18 01:33N 45°37' W 122°48'15234.2
2015-May-18 01:30N 45°52' W 122°48'3212806.6
2015-May-18 01:30N 46°12' W 123°23'4343.5
2015-May-18 00:30N 45°37' W 122°48'15239.4
2015-May-18 00:27N 45°52' W 122°48'19458.0
2015-May-18 00:24N 45°33' W 122°42'493979.7
2015-May-18 00:23N 46°12' W 123°23'4351.4
2015-May-17 23:33N 45°37' W 122°48'151212.9
2015-May-17 23:33N 45°52' W 122°48'328232.8
2015-May-17 23:32N 46°12' W 123°23'491278.2
2015-May-17 23:30N 45°33' W 122°42'6 6.2
2015-May-17 22:33N 45°37' W 122°48'6108.8
2015-May-17 22:30N 45°33' W 122°42'192486.5
2015-May-17 22:30N 45°52' W 122°48'326065.6
2015-May-17 22:29N 46°12' W 123°23'4951.9
2015-May-17 21:33N 45°33' W 122°42'  
Track history (hours):
 
Tides and Currents Weather Stations Pressure Air Temp Water Temp Dewpoint Dewpoint Depression Visibility Wind Speed Wind Dir Waves Ship Positions

Zarling

Owner: Clean Rivers Co-op, Portland, OR. More information available from US FCC via Universal Licensing System.

Last reported at 2015-May-27 21:33 UTC. Time now 2015-May-27 22:01 UTC.
Position N 46°05' W 122°56'.

Length 12 m.

Type: Pollution control. MMSI: 3699126.

Date/timePositionNaut miles runAvg speedWind from/ knotsBaromVisibWave heightAir tempDewpointWater temp
2015-May-27 21:33N 46°05' W 122°56'201465.7
2015-May-27 21:32N 46°12' W 123°23'321118.9
2015-May-27 21:31N 45°52' W 122°48'15392.6
2015-May-27 21:28N 45°37' W 122°48'631.9
2015-May-27 21:17N 45°33' W 122°42'4965.0
2015-May-27 20:32N 46°12' W 123°23'432374.3
2015-May-27 20:31N 45°37' W 122°48'6173.0
2015-May-27 20:29N 45°33' W 122°42'19675.9
2015-May-27 20:28N 45°52' W 122°48'14251.4
2015-May-27 20:24N 46°05' W 122°56'2023.6
2015-May-27 19:32N 46°12' W 123°23'432615.8
2015-May-27 19:31N 45°37' W 122°48'291453.5
2015-May-27 19:30N 46°05' W 122°56'14337.9
2015-May-27 19:28N 45°52' W 122°48'19274.1
2015-May-27 19:23N 45°33' W 122°42'3440.3
2015-May-27 18:33N 46°05' W 122°56'29921.4
2015-May-27 18:31N 45°37' W 122°48'6171.6
2015-May-27 18:29N 45°33' W 122°42'49989.3
2015-May-27 18:26N 46°12' W 123°23'32408.7
2015-May-27 18:22N 45°52' W 122°48'3239.0
2015-May-27 17:32N 46°12' W 123°23'432572.2
2015-May-27 17:31N 45°37' W 122°48'291453.5
2015-May-27 17:30N 46°05' W 122°56'14342.5
2015-May-27 17:28N 45°52' W 122°48'19268.6
2015-May-27 17:23N 45°33' W 122°42'3440.3
2015-May-27 16:33N 46°05' W 122°56'201465.7
2015-May-27 16:32N 46°12' W 123°23'49978.3
2015-May-27 16:29N 45°33' W 122°42'19245.9
2015-May-27 16:25N 45°52' W 122°48'1551.5
2015-May-27 16:07N 45°37' W 122°48'4373.6
2015-May-27 15:32N 46°12' W 123°23'432449.7
2015-May-27 15:31N 45°37' W 122°48'151241.6
2015-May-27 15:31N 45°52' W 122°48'141927.6
2015-May-27 15:30N 46°05' W 122°56'342422.5
2015-May-27 15:29N 45°33' W 122°42'3435.9
2015-May-27 14:33N 46°05' W 122°56'201357.1
2015-May-27 14:32N 46°12' W 123°23'432967.9
2015-May-27 14:31N 45°37' W 122°48'6167.5
2015-May-27 14:29N 45°33' W 122°42'19703.3
2015-May-27 14:28N 45°52' W 122°48'1515.8
2015-May-27 13:31N 45°37' W 122°48'291453.8
2015-May-27 13:30N 46°05' W 122°56'20317.3
2015-May-27 13:26N 46°12' W 123°23'32251.7
2015-May-27 13:19N 45°52' W 122°48'1419.1
2015-May-27 12:33N 46°05' W 122°56'29964.7
2015-May-27 12:31N 45°37' W 122°48'431234.8
2015-May-27 12:29N 46°12' W 123°23'321152.6
2015-May-27 12:28N 45°52' W 122°48'1415.9
2015-May-27 11:33N 46°05' W 122°56'29983.0
2015-May-27 11:31N 45°37' W 122°48'15237.3
2015-May-27 11:28N 45°52' W 122°48'32231.9
2015-May-27 11:19N 46°12' W 123°23'49207.5
2015-May-27 11:05N 45°33' W 122°42'610.4
2015-May-27 10:31N 45°37' W 122°48'291357.9
2015-May-27 10:30N 46°05' W 122°56'342422.5
2015-May-27 10:29N 45°33' W 122°42'19725.2
2015-May-27 10:28N 45°52' W 122°48'32811.6
2015-May-27 10:25N 46°12' W 123°23'4347.7
2015-May-27 09:31N 45°37' W 122°48'291376.0
2015-May-27 09:30N 46°05' W 122°56'20660.2
2015-May-27 09:28N 46°12' W 123°23'323201.3
2015-May-27 09:28N 45°52' W 122°48'3234.1
2015-May-27 08:31N 46°12' W 123°23'322810.9
2015-May-27 08:31N 45°52' W 122°48'141626.4
2015-May-27 08:30N 46°05' W 122°56'29364.7
2015-May-27 08:25N 45°37' W 122°48'6170.1
2015-May-27 08:23N 45°33' W 122°42'4956.1
2015-May-27 07:31N 46°12' W 123°23'201003.9
2015-May-27 07:30N 46°05' W 122°56'342422.5
2015-May-27 07:29N 45°33' W 122°42'19153.3
2015-May-27 07:22N 45°52' W 122°48'15106.9
2015-May-27 07:13N 45°37' W 122°48'2942.7
2015-May-27 06:33N 46°05' W 122°56'29973.6
2015-May-27 06:31N 45°37' W 122°48'43834.2
2015-May-27 06:28N 46°12' W 123°23'323114.8
2015-May-27 06:28N 45°52' W 122°48'19111.4
2015-May-27 06:17N 45°33' W 122°42'6 7.7
2015-May-27 05:31N 45°37' W 122°48'4322047.4
2015-May-27 05:31N 46°12' W 123°23'201032.2
2015-May-27 05:30N 46°05' W 122°56'14354.0
2015-May-27 05:28N 45°52' W 122°48'1515.8
2015-May-27 04:31N 45°37' W 122°48'6168.7
2015-May-27 04:29N 45°33' W 122°42'492870.3
2015-May-27 04:28N 46°12' W 123°23'323292.7
2015-May-27 04:28N 45°52' W 122°48'14239.8
2015-May-27 04:24N 46°05' W 122°56'0 0.0
2015-May-27 03:33N 46°05' W 122°56'291021.8
2015-May-27 03:31N 45°37' W 122°48'432911.9
2015-May-27 03:31N 46°12' W 123°23'492334.8
2015-May-27 03:29N 45°33' W 122°42'19748.4
2015-May-27 03:28N 45°52' W 122°48'1415.9
2015-May-27 02:33N 46°05' W 122°56'20479.0
2015-May-27 02:31N 46°12' W 123°23'32686.1
2015-May-27 02:28N 45°52' W 122°48'15398.3
2015-May-27 02:26N 45°37' W 122°48'624.6
2015-May-27 02:11N 45°33' W 122°42'6 8.8
2015-May-27 01:31N 45°37' W 122°48'151270.6
2015-May-27 01:31N 45°52' W 122°48'329605.0
2015-May-27 01:31N 46°12' W 123°23'20190.4
2015-May-27 01:24N 46°05' W 122°56'342422.5
2015-May-27 01:23N 45°33' W 122°42'0 0.0
2015-May-27 00:32N 45°33' W 122°42'6413.2
2015-May-27 00:31N 45°37' W 122°48'291274.3
2015-May-27 00:30N 46°05' W 122°56'20472.8
2015-May-27 00:28N 46°12' W 123°23'32129.8
2015-May-27 00:13N 45°52' W 122°48'1521.6
2015-May-26 23:31N 45°37' W 122°48'6163.6
2015-May-26 23:29N 45°33' W 122°42'491667.7
2015-May-26 23:28N 46°12' W 123°23'20355.8
2015-May-26 23:24N 46°05' W 122°56'14364.1
2015-May-26 23:22N 45°52' W 122°48'1517.7
2015-May-26 22:31N 45°37' W 122°48'151302.1
2015-May-26 22:31N 45°52' W 122°48'141334.5
2015-May-26 22:30N 46°05' W 122°56'20475.9
2015-May-26 22:28N 46°12' W 123°23'49179.8
2015-May-26 22:11N 45°33' W 122°42'1926.6
2015-May-26 21:28N 45°52' W 122°48'329603.8
2015-May-26 21:28N 46°12' W 123°23'20361.0
2015-May-26 21:24N 46°05' W 122°56'291032.0
2015-May-26 21:23N 45°37' W 122°48'620.5
2015-May-26 21:05N 45°33' W 122°42'610.4
2015-May-26 20:32N 45°37' W 122°48'432707.6
2015-May-26 20:31N 46°12' W 123°23'202617.3
2015-May-26 20:30N 46°05' W 122°56'14371.7
2015-May-26 20:28N 45°52' W 122°48'1951.5
2015-May-26 20:05N 45°33' W 122°42'3457.5
2015-May-26 19:30N 46°05' W 122°56'14371.7
2015-May-26 19:28N 45°52' W 122°48'1970.3
2015-May-26 19:11N 45°33' W 122°42'693.0
2015-May-26 19:08N 45°37' W 122°48'43651.2
2015-May-26 19:04N 46°12' W 123°23'2038.2
2015-May-26 18:32N 46°05' W 122°56'29557.8
2015-May-26 18:29N 45°37' W 122°48'432615.8
2015-May-26 18:28N 46°12' W 123°23'32163.5
2015-May-26 18:16N 45°52' W 122°48'1924.9
2015-May-26 17:29N 45°33' W 122°42'19258.7
2015-May-26 17:25N 45°52' W 122°48'15392.6
2015-May-26 17:23N 45°37' W 122°48'43369.3
2015-May-26 17:16N 46°12' W 123°23'20626.4
2015-May-26 17:14N 46°05' W 122°56'1418.9
2015-May-26 16:28N 45°52' W 122°48'15392.6
2015-May-26 16:26N 45°37' W 122°48'29115.5
2015-May-26 16:11N 46°05' W 122°56'20172.0
2015-May-26 16:04N 46°12' W 123°23'0 0.0
2015-May-26 15:31N 46°12' W 123°23'32694.3
2015-May-26 15:28N 45°52' W 122°48'15392.6
2015-May-26 15:26N 45°37' W 122°48'624.7
2015-May-26 15:11N 45°33' W 122°42'3450.9
2015-May-26 14:32N 46°05' W 122°56'2934399.5
2015-May-26 14:32N 45°37' W 122°48'15237.3
2015-May-26 14:28N 45°52' W 122°48'32207.7
2015-May-26 14:19N 46°12' W 123°23'491036.1
2015-May-26 14:16N 45°33' W 122°42'6 8.0
2015-May-26 13:32N 45°37' W 122°48'692.6
2015-May-26 13:28N 45°33' W 122°42'4912507.7
2015-May-26 13:28N 46°12' W 123°23'20245.9
2015-May-26 13:23N 46°05' W 122°56'141131.4
2015-May-26 13:22N 45°52' W 122°48'0 0.0
2015-May-26 12:31N 45°52' W 122°48'326403.3
2015-May-26 12:31N 46°12' W 123°23'20648.5
2015-May-26 12:29N 46°05' W 122°56'2925804.9
2015-May-26 12:29N 45°37' W 122°48'6421.8
2015-May-26 12:28N 45°33' W 122°42'3434.2
2015-May-26 11:29N 46°05' W 122°56'2917203.3
2015-May-26 11:29N 45°37' W 122°48'6439.4
2015-May-26 11:28N 45°33' W 122°42'4921888.5
2015-May-26 11:28N 46°12' W 123°23'32219.5
2015-May-26 11:19N 45°52' W 122°48'3242.3
2015-May-26 10:34N 46°12' W 123°23'431353.8
2015-May-26 10:32N 45°37' W 122°48'151213.3
2015-May-26 10:31N 45°52' W 122°48'19374.2
2015-May-26 10:28N 45°33' W 122°42'3436.6
2015-May-26 09:33N 46°05' W 122°56'291691.8
2015-May-26 09:32N 45°37' W 122°48'432374.3
2015-May-26 09:31N 46°12' W 123°23'32734.1
2015-May-26 09:28N 45°52' W 122°48'19188.7
2015-May-26 09:22N 45°33' W 122°42'1921.5
2015-May-26 08:28N 45°52' W 122°48'143254.0
2015-May-26 08:28N 46°05' W 122°56'29215.4
2015-May-26 08:20N 45°37' W 122°48'432489.2
2015-May-26 08:19N 46°12' W 123°23'49332.9
2015-May-26 08:10N 45°33' W 122°42'1929.9
2015-May-26 07:31N 45°52' W 122°48'324432.5
2015-May-26 07:31N 46°12' W 123°23'431319.2
2015-May-26 07:29N 45°37' W 122°48'6421.8
2015-May-26 07:28N 45°33' W 122°42'34640.9
2015-May-26 07:25N 46°05' W 122°56'0 0.0
2015-May-26 06:31N 46°05' W 122°56'2018321.4
2015-May-26 06:31N 46°12' W 123°23'491067.7
2015-May-26 06:28N 45°33' W 122°42'6164.8
2015-May-26 06:26N 45°37' W 122°48'151186.4
2015-May-26 06:25N 45°52' W 122°48'0 0.0
2015-May-26 05:31N 45°52' W 122°48'142891.3
2015-May-26 05:31N 46°05' W 122°56'34712.5
2015-May-26 05:28N 45°33' W 122°42'6164.9
2015-May-26 05:26N 45°37' W 122°48'432374.3
2015-May-26 05:25N 46°12' W 123°23'4348.6
2015-May-26 04:32N 45°37' W 122°48'291720.0
2015-May-26 04:31N 46°05' W 122°56'20200.8
2015-May-26 04:25N 46°12' W 123°23'49332.9
2015-May-26 04:16N 45°33' W 122°42'19197.8
2015-May-26 04:10N 45°52' W 122°48'1523.3
2015-May-26 03:32N 45°37' W 122°48'151212.9
2015-May-26 03:31N 45°52' W 122°48'142740.2
2015-May-26 03:31N 46°05' W 122°56'2036642.8
2015-May-26 03:31N 46°12' W 123°23'491030.0
2015-May-26 03:28N 45°33' W 122°42'6 6.0
2015-May-26 02:29N 45°37' W 122°48'151241.1
2015-May-26 02:28N 45°52' W 122°48'19187.1
2015-May-26 02:22N 45°33' W 122°42'49916.8
2015-May-26 02:19N 46°12' W 123°23'20204.1
2015-May-26 02:13N 46°05' W 122°56'2030.5
2015-May-26 01:33N 46°12' W 123°23'432806.4
2015-May-26 01:32N 45°37' W 122°48'291664.8
2015-May-26 01:31N 46°05' W 122°56'34227.6
2015-May-26 01:22N 45°33' W 122°42'19200.0
2015-May-26 01:16N 45°52' W 122°48'3243.7
2015-May-26 00:32N 46°12' W 123°23'43771.7
2015-May-26 00:29N 45°37' W 122°48'151186.4
2015-May-26 00:28N 45°52' W 122°48'142740.2
2015-May-26 00:28N 46°05' W 122°56'34170.4
2015-May-26 00:16N 45°33' W 122°42'4966.7
2015-May-25 23:32N 46°12' W 123°23'437349.1
2015-May-25 23:32N 45°37' W 122°48'291587.7
2015-May-25 23:31N 46°05' W 122°56'14333.6
2015-May-25 23:28N 45°52' W 122°48'1995.1
2015-May-25 23:16N 45°33' W 122°42'1924.3
2015-May-25 22:28N 45°52' W 122°48'196962.2
2015-May-25 22:28N 45°33' W 122°42'491667.7
2015-May-25 22:26N 46°12' W 123°23'436710.1
2015-May-25 22:26N 45°37' W 122°48'29107.2
2015-May-25 22:10N 46°05' W 122°56'2032.2
2015-May-25 21:32N 46°12' W 123°23'43154331.6
2015-May-25 21:32N 45°37' W 122°48'15237.2
2015-May-25 21:28N 45°52' W 122°48'196327.4
2015-May-25 21:28N 45°33' W 122°42'3411011.4
2015-May-25 21:28N 46°05' W 122°56'2021.9
2015-May-25 20:32N 46°12' W 123°23'49729.6
2015-May-25 20:28N 45°33' W 122°42'19416.9
2015-May-25 20:25N 45°52' W 122°48'142478.3
2015-May-25 20:25N 46°05' W 122°56'29219.1
2015-May-25 20:17N 45°37' W 122°48'4350.4
2015-May-25 19:26N 46°12' W 123°23'322561.3
2015-May-25 19:25N 45°52' W 122°48'14137.0
2015-May-25 19:19N 46°05' W 122°56'34708.3
2015-May-25 19:16N 45°33' W 122°42'6171.6
2015-May-25 19:14N 45°37' W 122°48'0 0.0
2015-May-25 18:32N 45°37' W 122°48'291517.6
2015-May-25 18:31N 46°05' W 122°56'14331.5
2015-May-25 18:28N 45°52' W 122°48'32841.2
2015-May-25 18:26N 46°12' W 123°23'0 0.0
2015-May-25 17:32N 46°12' W 123°23'322744.3
2015-May-25 17:31N 45°52' W 122°48'142740.2
2015-May-25 17:31N 46°05' W 122°56'29860.0
2015-May-25 17:29N 45°37' W 122°48'6376.6
2015-May-25 17:28N 45°33' W 122°42'4952.1
2015-May-25 16:32N 46°12' W 123°23'322680.5
2015-May-25 16:31N 45°52' W 122°48'142479.2
2015-May-25 16:31N 46°05' W 122°56'34700.1
2015-May-25 16:28N 45°33' W 122°42'4952.1
2015-May-25 15:32N 46°12' W 123°23'322743.9
2015-May-25 15:31N 45°52' W 122°48'15170.0
2015-May-25 15:26N 45°37' W 122°48'29130.5
2015-May-25 15:13N 46°05' W 122°56'34712.5
2015-May-25 15:10N 45°33' W 122°42'4976.7
2015-May-25 14:32N 46°12' W 123°23'201077.7
2015-May-25 14:31N 46°05' W 122°56'29921.4
2015-May-25 14:29N 45°37' W 122°48'151368.3
2015-May-25 14:28N 45°52' W 122°48'193866.7
2015-May-25 14:28N 45°33' W 122°42'6 6.0
2015-May-25 13:29N 45°37' W 122°48'43154331.6
2015-May-25 13:29N 46°12' W 123°23'201062.1
2015-May-25 13:28N 46°05' W 122°56'14155.8
2015-May-25 13:22N 45°52' W 122°48'19149.1
2015-May-25 13:14N 45°33' W 122°42'4968.7
2015-May-25 12:32N 46°12' W 123°23'201077.7
2015-May-25 12:31N 46°05' W 122°56'14340.3
2015-May-25 12:28N 45°52' W 122°48'19627.0
2015-May-25 12:26N 45°33' W 122°42'654.5
2015-May-25 12:20N 45°37' W 122°48'0 0.0
2015-May-25 11:32N 45°37' W 122°48'4330869.9
2015-May-25 11:32N 46°12' W 123°23'201093.8
2015-May-25 11:31N 46°05' W 122°56'34194.1
2015-May-25 11:20N 45°33' W 122°42'19994.3
2015-May-25 11:19N 45°52' W 122°48'1417.9
2015-May-25 10:31N 46°05' W 122°56'20666.2
2015-May-25 10:29N 46°12' W 123°23'322505.3
2015-May-25 10:28N 45°52' W 122°48'19148.1
2015-May-25 10:20N 45°33' W 122°42'6102.5
2015-May-25 10:17N 45°37' W 122°48'4357.1
2015-May-25 09:32N 46°12' W 123°23'201093.8
2015-May-25 09:31N 46°05' W 122°56'29946.8
2015-May-25 09:29N 45°37' W 122°48'6138.9
2015-May-25 09:26N 45°33' W 122°42'19994.6
2015-May-25 09:25N 45°52' W 122°48'3236.0
2015-May-25 08:32N 46°12' W 123°23'43882.0
2015-May-25 08:29N 45°37' W 122°48'151186.4
2015-May-25 08:28N 45°52' W 122°48'14134.5
2015-May-25 08:22N 46°05' W 122°56'341424.8
2015-May-25 08:20N 45°33' W 122°42'3440.7
2015-May-25 07:31N 46°05' W 122°56'29964.5
2015-May-25 07:29N 45°37' W 122°48'151185.9
2015-May-25 07:28N 45°52' W 122°48'32817.4
2015-May-25 07:26N 46°12' W 123°23'49530.6
2015-May-25 07:20N 45°33' W 122°42'4960.1
2015-May-25 06:32N 46°12' W 123°23'201093.8
2015-May-25 06:31N 46°05' W 122°56'34462.3
2015-May-25 06:26N 45°33' W 122°42'19283.0
2015-May-25 06:22N 45°52' W 122°48'15392.6
2015-May-25 06:20N 45°37' W 122°48'4353.5
2015-May-25 05:32N 46°12' W 123°23'491167.4
2015-May-25 05:29N 45°33' W 122°42'191039.1
2015-May-25 05:28N 45°52' W 122°48'14247.8
2015-May-25 05:25N 46°05' W 122°56'29982.8
2015-May-25 05:23N 45°37' W 122°48'0 0.0
2015-May-25 04:32N 45°37' W 122°48'43821.0
2015-May-25 04:29N 46°12' W 123°23'323032.8
2015-May-25 04:28N 45°52' W 122°48'141734.8
2015-May-25 04:28N 46°05' W 122°56'341425.0
2015-May-25 04:26N 45°33' W 122°42'0 0.0
2015-May-25 03:32N 45°33' W 122°42'191054.6
2015-May-25 03:31N 45°52' W 122°48'14247.9
2015-May-25 03:28N 46°05' W 122°56'29364.7
2015-May-25 03:23N 45°37' W 122°48'43281.1
2015-May-25 03:14N 46°12' W 123°23'2028.3
2015-May-25 02:31N 46°05' W 122°56'14354.2
2015-May-25 02:28N 45°52' W 122°48'15389.7
2015-May-25 02:26N 45°37' W 122°48'619.9
2015-May-25 02:08N 45°33' W 122°42'49850.0
2015-May-25 02:05N 46°12' W 123°23'0 0.0
2015-May-25 01:29N 46°12' W 123°23'491183.0
2015-May-25 01:26N 45°33' W 122°42'341288.3
2015-May-25 01:25N 46°05' W 122°56'29221.5
2015-May-25 01:17N 45°37' W 122°48'15241.7
2015-May-25 01:13N 45°52' W 122°48'1928.3
2015-May-25 00:32N 45°33' W 122°42'61110.8
2015-May-25 00:32N 45°37' W 122°48'4314030.1
2015-May-25 00:32N 46°12' W 123°23'323292.7
2015-May-25 00:31N 45°52' W 122°48'14249.0
2015-May-25 00:28N 46°05' W 122°56'3436.4
2015-May-24 23:32N 45°33' W 122°42'61172.5
2015-May-24 23:32N 45°37' W 122°48'4315433.2
2015-May-24 23:32N 46°12' W 123°23'323201.3
2015-May-24 23:31N 45°52' W 122°48'141626.4
2015-May-24 23:31N 46°05' W 122°56'2020.7
2015-May-24 22:32N 46°12' W 123°23'32543.6
2015-May-24 22:28N 45°52' W 122°48'15386.9
2015-May-24 22:26N 45°37' W 122°48'29235.6
2015-May-24 22:19N 46°05' W 122°56'3443.5
2015-May-24 21:32N 45°33' W 122°42'61318.2
2015-May-24 21:32N 45°37' W 122°48'151160.6
2015-May-24 21:31N 45°52' W 122°48'32778.7
2015-May-24 21:29N 46°12' W 123°23'20171.6
2015-May-24 21:22N 46°05' W 122°56'2934.6
2015-May-24 20:32N 45°37' W 122°48'15132.8
2015-May-24 20:25N 45°52' W 122°48'141406.6
2015-May-24 20:25N 46°05' W 122°56'34194.4
2015-May-24 20:14N 45°33' W 122°42'496038.2
2015-May-24 20:14N 46°12' W 123°23'0 0.0
2015-May-24 19:32N 46°12' W 123°23'20295.5
2015-May-24 19:28N 46°05' W 122°56'341459.3
2015-May-24 19:26N 45°33' W 122°42'19288.9
2015-May-24 19:22N 45°52' W 122°48'15389.7
2015-May-24 19:20N 45°37' W 122°48'4353.4
2015-May-24 18:32N 46°12' W 123°23'323389.6
2015-May-24 18:31N 45°52' W 122°48'15398.6
2015-May-24 18:29N 45°37' W 122°48'29128.7
2015-May-24 18:16N 46°05' W 122°56'2939.4
2015-May-24 17:32N 45°37' W 122°48'43416.0
2015-May-24 17:26N 46°12' W 123°23'20295.5
2015-May-24 17:22N 46°05' W 122°56'14361.4
2015-May-24 17:19N 45°52' W 122°48'3240.5
2015-May-24 16:32N 46°12' W 123°23'323974.5
2015-May-24 16:31N 45°52' W 122°48'141335.0
2015-May-24 16:31N 46°05' W 122°56'29223.9
2015-May-24 16:23N 45°37' W 122°48'6130.3
2015-May-24 16:20N 45°33' W 122°42'6 7.3
2015-May-24 15:32N 45°37' W 122°48'291274.1
2015-May-24 15:31N 46°05' W 122°56'14366.6
2015-May-24 15:28N 45°52' W 122°48'32167.8
2015-May-24 15:17N 46°12' W 123°23'0 0.0
2015-May-24 14:32N 46°12' W 123°23'323841.5
2015-May-24 14:31N 45°52' W 122°48'14238.7
2015-May-24 14:28N 46°05' W 122°56'291053.0
2015-May-24 14:26N 45°37' W 122°48'1516.2
2015-May-24 13:31N 45°52' W 122°48'141446.2
2015-May-24 13:31N 46°05' W 122°56'291032.2
2015-May-24 13:29N 45°37' W 122°48'4310290.0
2015-May-24 13:29N 46°12' W 123°23'4951.7
2015-May-24 12:32N 45°33' W 122°42'495648.6
2015-May-24 12:32N 46°12' W 123°23'201201.4
2015-May-24 12:31N 46°05' W 122°56'14160.2
2015-May-24 12:25N 45°52' W 122°48'15392.6
2015-May-24 12:23N 45°37' W 122°48'6 6.9
2015-May-24 11:32N 45°33' W 122°42'341261.7
2015-May-24 11:31N 46°05' W 122°56'291064.1
2015-May-24 11:29N 45°37' W 122°48'43413.8
2015-May-24 11:23N 46°12' W 123°23'32296.3
2015-May-24 11:16N 45°52' W 122°48'1926.3
2015-May-24 10:32N 45°33' W 122°42'61507.6
2015-May-24 10:32N 45°37' W 122°48'43787.5
2015-May-24 10:29N 46°12' W 123°23'324433.1
2015-May-24 10:28N 45°52' W 122°48'1489.9
2015-May-24 10:19N 46°05' W 122°56'2936.9
2015-May-24 09:32N 45°37' W 122°48'439078.3
2015-May-24 09:32N 46°12' W 123°23'324609.8
2015-May-24 09:31N 45°52' W 122°48'14235.5
2015-May-24 09:28N 46°05' W 122°56'341442.0
2015-May-24 09:26N 45°33' W 122°42'6 6.5
2015-May-24 08:32N 45°37' W 122°48'151213.3
2015-May-24 08:31N 45°52' W 122°48'32758.2
2015-May-24 08:29N 46°12' W 123°23'20120.3
2015-May-24 08:19N 46°05' W 122°56'34457.1
2015-May-24 08:14N 45°33' W 122°42'0 0.0
2015-May-24 07:32N 45°33' W 122°42'61918.7
2015-May-24 07:32N 45°37' W 122°48'15239.4
2015-May-24 07:28N 45°52' W 122°48'32738.8
2015-May-24 07:26N 46°12' W 123°23'20172.0
2015-May-24 07:19N 46°05' W 122°56'2936.9
2015-May-24 06:32N 45°37' W 122°48'43787.5
2015-May-24 06:29N 46°12' W 123°23'324610.4
2015-May-24 06:28N 45°52' W 122°48'141210.8
2015-May-24 06:28N 46°05' W 122°56'34104.1
2015-May-24 06:08N 45°33' W 122°42'6 9.7
2015-May-24 05:32N 45°37' W 122°48'437015.1
2015-May-24 05:32N 46°12' W 123°23'325238.4
2015-May-24 05:31N 45°52' W 122°48'14128.8
2015-May-24 05:25N 46°05' W 122°56'34194.1
2015-May-24 05:14N 45°33' W 122°42'0 0.0
2015-May-24 04:32N 45°33' W 122°42'61917.3
2015-May-24 04:32N 45°37' W 122°48'438123.7
2015-May-24 04:32N 46°12' W 123°23'324802.5
2015-May-24 04:31N 45°52' W 122°48'141183.3
2015-May-24 04:31N 46°05' W 122°56'3434.6
2015-May-24 03:32N 45°33' W 122°42'6111.1
2015-May-24 03:29N 45°37' W 122°48'437349.1
2015-May-24 03:29N 46°12' W 123°23'325011.3
2015-May-24 03:28N 45°52' W 122°48'14231.4
2015-May-24 03:25N 46°05' W 122°56'3438.6
2015-May-24 02:32N 45°33' W 122°42'657.0
2015-May-24 02:26N 45°37' W 122°48'1570.2
2015-May-24 02:13N 45°52' W 122°48'14231.4
2015-May-24 02:10N 46°05' W 122°56'2945.8
2015-May-24 01:32N 45°37' W 122°48'15237.3
2015-May-24 01:28N 45°52' W 122°48'141301.1
2015-May-24 01:28N 46°05' W 122°56'341408.2
2015-May-24 01:26N 45°33' W 122°42'49188.5
2015-May-24 01:11N 46°12' W 123°23'4366.5
2015-May-24 00:32N 45°37' W 122°48'151241.6
2015-May-24 00:31N 45°52' W 122°48'141107.7
2015-May-24 00:31N 46°05' W 122°56'20642.9
2015-May-24 00:29N 46°12' W 123°23'0 0.0
2015-May-23 23:26N 46°12' W 123°23'201110.4
2015-May-23 23:25N 46°05' W 122°56'29380.9
2015-May-23 23:20N 45°37' W 122°48'151135.9
2015-May-23 23:19N 45°52' W 122°48'1518.8
2015-May-23 22:32N 45°37' W 122°48'291121.7
2015-May-23 22:31N 46°05' W 122°56'14397.3
2015-May-23 22:28N 45°52' W 122°48'19527.4
2015-May-23 22:26N 45°33' W 122°42'49452.5
2015-May-23 22:20N 46°12' W 123°23'4961.4
2015-May-23 21:32N 45°33' W 122°42'497004.3
2015-May-23 21:32N 46°12' W 123°23'43453.9
2015-May-23 21:26N 45°37' W 122°48'15237.2
2015-May-23 21:22N 45°52' W 122°48'14228.4
2015-May-23 21:19N 46°05' W 122°56'2937.0
2015-May-23 20:32N 45°37' W 122°48'436431.2
2015-May-23 20:32N 46°12' W 123°23'326065.6
2015-May-23 20:31N 45°52' W 122°48'14127.6
2015-May-23 20:25N 46°05' W 122°56'2931.0
2015-May-23 19:29N 45°37' W 122°48'6119.9
2015-May-23 19:26N 45°33' W 122°42'191338.9
2015-May-23 19:25N 45°52' W 122°48'32222.1
2015-May-23 19:17N 46°12' W 123°23'201093.8
2015-May-23 19:16N 46°05' W 122°56'2939.6
2015-May-23 18:32N 45°37' W 122°48'291097.9
2015-May-23 18:31N 46°05' W 122°56'34194.1
2015-May-23 18:20N 45°33' W 122°42'495472.1
2015-May-23 18:20N 46°12' W 123°23'326780.0
2015-May-23 18:19N 45°52' W 122°48'3240.3
2015-May-23 17:32N 46°12' W 123°23'326402.5
2015-May-23 17:31N 45°52' W 122°48'141107.3
2015-May-23 17:31N 46°05' W 122°56'291173.0
2015-May-23 17:29N 45°37' W 122°48'623.5
2015-May-23 17:14N 45°33' W 122°42'3446.2
2015-May-23 16:31N 46°05' W 122°56'29388.0
2015-May-23 16:26N 45°37' W 122°48'43749.2
2015-May-23 16:23N 46°12' W 123°23'327203.7
2015-May-23 16:22N 45°52' W 122°48'1923.1
2015-May-23 15:32N 45°33' W 122°42'621105.9
2015-May-23 15:32N 45°37' W 122°48'291075.0
2015-May-23 15:31N 46°05' W 122°56'20654.3
2015-May-23 15:29N 46°12' W 123°23'32579.1
2015-May-23 15:25N 45°52' W 122°48'1921.8
2015-May-23 14:32N 45°33' W 122°42'191582.3
2015-May-23 14:32N 45°52' W 122°48'15386.9
2015-May-23 14:29N 45°37' W 122°48'436173.3
2015-May-23 14:29N 46°12' W 123°23'20293.1
2015-May-23 14:25N 46°05' W 122°56'2023.1
2015-May-23 13:32N 46°12' W 123°23'326403.3
2015-May-23 13:32N 45°52' W 122°48'14982.3
2015-May-23 13:31N 46°05' W 122°56'291228.8
2015-May-23 13:29N 45°37' W 122°48'639.3
2015-May-23 13:20N 45°33' W 122°42'6 7.3
2015-May-23 12:32N 45°37' W 122°48'151213.3
2015-May-23 12:32N 45°52' W 122°48'14982.3
2015-May-23 12:31N 46°05' W 122°56'20654.3
2015-May-23 12:29N 46°12' W 123°23'3231.9
2015-May-23 11:29N 45°52' W 122°48'15395.5
2015-May-23 11:26N 45°37' W 122°48'43738.5
2015-May-23 11:23N 46°12' W 123°23'4350.9
2015-May-23 10:32N 45°37' W 122°48'151135.9
2015-May-23 10:31N 45°52' W 122°48'141000.8
2015-May-23 10:31N 46°05' W 122°56'20251.0
2015-May-23 10:26N 46°12' W 123°23'49972.9
2015-May-23 10:23N 45°33' W 122°42'4957.3
2015-May-23 09:32N 46°12' W 123°23'431028.9
2015-May-23 09:29N 45°37' W 122°48'151185.9
2015-May-23 09:29N 45°52' W 122°48'14929.7
2015-May-23 09:28N 46°05' W 122°56'2931.1
2015-May-23 08:32N 45°37' W 122°48'434978.4
2015-May-23 08:32N 46°12' W 123°23'201077.7
2015-May-23 08:31N 46°05' W 122°56'14413.2
2015-May-23 08:29N 45°52' W 122°48'19446.2
2015-May-23 08:26N 45°33' W 122°42'4954.0
2015-May-23 07:32N 46°12' W 123°23'20990.3
2015-May-23 07:31N 46°05' W 122°56'29397.0
2015-May-23 07:26N 45°37' W 122°48'61110.0
2015-May-23 07:26N 45°33' W 122°42'192784.1
2015-May-23 07:26N 45°52' W 122°48'1921.6
2015-May-23 06:32N 45°33' W 122°42'341593.8
2015-May-23 06:31N 46°05' W 122°56'29397.0
2015-May-23 06:26N 45°37' W 122°48'43717.9
2015-May-23 06:23N 46°12' W 123°23'32606.6
2015-May-23 06:20N 45°52' W 122°48'1518.8
2015-May-23 05:32N 45°37' W 122°48'434822.9
2015-May-23 05:32N 46°12' W 123°23'329605.0
2015-May-23 05:32N 45°52' W 122°48'14221.5
2015-May-23 05:28N 46°05' W 122°56'341187.5
2015-May-23 05:26N 45°33' W 122°42'6 6.6
2015-May-23 04:32N 45°37' W 122°48'61110.8
2015-May-23 04:32N 45°33' W 122°42'34462.3
2015-May-23 04:28N 46°05' W 122°56'20666.2
2015-May-23 04:26N 46°12' W 123°23'32623.0
2015-May-23 04:23N 45°52' W 122°48'1517.7
2015-May-23 03:32N 45°37' W 122°48'151212.9
2015-May-23 03:32N 45°52' W 122°48'14897.7
2015-May-23 03:31N 46°05' W 122°56'20654.3
2015-May-23 03:29N 46°12' W 123°23'4345.6
2015-May-23 02:32N 45°37' W 122°48'435322.4
2015-May-23 02:32N 46°12' W 123°23'201017.9
2015-May-23 02:31N 46°05' W 122°56'14173.0
2015-May-23 02:26N 45°52' W 122°48'1516.7
2015-May-23 01:32N 45°37' W 122°48'29992.3
2015-May-23 01:31N 46°05' W 122°56'1478.7
2015-May-23 01:20N 45°52' W 122°48'32677.9
2015-May-23 01:17N 46°12' W 123°23'4965.0
2015-May-23 00:32N 45°33' W 122°42'194095.4
2015-May-23 00:32N 45°52' W 122°48'14867.4
2015-May-23 00:31N 46°05' W 122°56'20251.0
2015-May-23 00:26N 46°12' W 123°23'43473.4
2015-May-23 00:20N 45°37' W 122°48'6 7.3
2015-May-22 23:32N 45°33' W 122°42'4919456.4
2015-May-22 23:32N 46°12' W 123°23'32609.8
2015-May-22 23:29N 45°52' W 122°48'14913.4
2015-May-22 23:28N 46°05' W 122°56'29234.1
2015-May-22 23:20N 45°37' W 122°48'2934.6
2015-May-22 22:31N 46°05' W 122°56'291323.1
2015-May-22 22:29N 45°37' W 122°48'151213.3
2015-May-22 22:29N 45°52' W 122°48'32677.9
2015-May-22 22:26N 46°12' W 123°23'49163.8
2015-May-22 22:08N 45°33' W 122°42'3454.1
2015-May-22 21:31N 46°05' W 122°56'29404.7
2015-May-22 21:26N 45°37' W 122°48'15132.1
2015-May-22 21:20N 45°52' W 122°48'1518.8
2015-May-22 20:32N 45°37' W 122°48'29363.4
2015-May-22 20:28N 46°05' W 122°56'341211.0
2015-May-22 20:26N 45°33' W 122°42'194094.2
2015-May-22 20:26N 45°52' W 122°48'1516.7
2015-May-22 19:32N 45°37' W 122°48'29992.3
2015-May-22 19:31N 46°05' W 122°56'14433.7
2015-May-22 19:29N 45°52' W 122°48'32670.0
2015-May-22 19:26N 46°12' W 123°23'0 0.0
2015-May-22 18:33N 46°12' W 123°23'438122.7
2015-May-22 18:32N 45°37' W 122°48'6781.7
2015-May-22 18:32N 45°33' W 122°42'19351.5
2015-May-22 18:29N 45°52' W 122°48'14216.0
2015-May-22 18:25N 46°05' W 122°56'2932.9
2015-May-22 17:32N 45°37' W 122°48'151161.1
2015-May-22 17:32N 45°52' W 122°48'14216.0
2015-May-22 17:28N 46°05' W 122°56'201308.7
2015-May-22 17:27N 46°12' W 123°23'493806.3
2015-May-22 17:26N 45°33' W 122°42'6 6.6
2015-May-22 16:32N 45°37' W 122°48'29964.5
2015-May-22 16:31N 46°05' W 122°56'14177.7
2015-May-22 16:26N 45°52' W 122°48'32112.8
2015-May-22 16:09N 46°12' W 123°23'4370.9
2015-May-22 15:32N 45°37' W 122°48'151368.9
2015-May-22 15:32N 45°52' W 122°48'32952.4
2015-May-22 15:30N 46°12' W 123°23'2071.4
2015-May-22 15:13N 46°05' W 122°56'1421.2
2015-May-22 14:32N 45°52' W 122°48'14826.1
2015-May-22 14:31N 46°05' W 122°56'201357.1
2015-May-22 14:30N 46°12' W 123°23'43775.5
2015-May-22 14:26N 45°37' W 122°48'654.1
2015-May-22 14:20N 45°33' W 122°42'4961.8
2015-May-22 13:33N 46°12' W 123°23'49431.3
2015-May-22 13:26N 45°33' W 122°42'6141.5
2015-May-22 13:23N 45°37' W 122°48'151213.3
2015-May-22 13:23N 45°52' W 122°48'14801.0
2015-May-22 13:22N 46°05' W 122°56'0 0.0
2015-May-22 12:31N 46°05' W 122°56'14460.7
2015-May-22 12:29N 45°52' W 122°48'15389.7
2015-May-22 12:26N 45°37' W 122°48'6100.0
2015-May-22 12:23N 45°33' W 122°42'49259.8
2015-May-22 12:12N 46°12' W 123°23'4973.4
2015-May-22 11:32N 45°33' W 122°42'341514.1
2015-May-22 11:31N 46°05' W 122°56'201382.7
2015-May-22 11:30N 46°12' W 123°23'321987.2
2015-May-22 11:29N 45°52' W 122°48'15166.8
2015-May-22 11:23N 45°37' W 122°48'2932.6
2015-May-22 10:31N 46°05' W 122°56'20314.5
2015-May-22 10:27N 46°12' W 123°23'43787.4
2015-May-22 10:23N 45°37' W 122°48'151271.1
2015-May-22 10:23N 45°52' W 122°48'19198.9
2015-May-22 10:17N 45°33' W 122°42'4966.0
2015-May-22 09:33N 46°12' W 123°23'494072.7
2015-May-22 09:32N 45°33' W 122°42'194641.5
2015-May-22 09:32N 45°52' W 122°48'14788.5
2015-May-22 09:31N 46°05' W 122°56'29416.1
2015-May-22 09:26N 45°37' W 122°48'6 6.4
2015-May-22 08:32N 45°33' W 122°42'491347.0
2015-May-22 08:30N 46°12' W 123°23'321953.3
2015-May-22 08:29N 45°52' W 122°48'14209.0
2015-May-22 08:25N 46°05' W 122°56'29412.8
2015-May-22 08:20N 45°37' W 122°48'0 0.0
2015-May-22 07:32N 45°37' W 122°48'151271.1
2015-May-22 07:32N 45°52' W 122°48'14777.1
2015-May-22 07:31N 46°05' W 122°56'20175.7
2015-May-22 07:24N 46°12' W 123°23'493891.3
2015-May-22 07:23N 45°33' W 122°42'4958.1
2015-May-22 06:33N 46°12' W 123°23'439646.8
2015-May-22 06:32N 45°37' W 122°48'15239.4
2015-May-22 06:29N 45°52' W 122°48'14121.4
2015-May-22 06:22N 46°05' W 122°56'34262.7
2015-May-22 06:14N 45°33' W 122°42'6 7.4
2015-May-22 05:27N 45°37' W 122°48'29921.4
2015-May-22 05:25N 46°05' W 122°56'20311.9
2015-May-22 05:21N 46°12' W 123°23'322174.5
2015-May-22 05:20N 45°52' W 122°48'0 0.0
2015-May-22 04:32N 45°52' W 122°48'15168.9
2015-May-22 04:27N 45°37' W 122°48'29349.8
2015-May-22 04:22N 46°05' W 122°56'20144.5
2015-May-22 04:13N 46°12' W 123°23'4363.3
2015-May-22 03:33N 45°37' W 122°48'15239.4
2015-May-22 03:29N 45°52' W 122°48'323390.0
2015-May-22 03:28N 46°12' W 123°23'49353.0
2015-May-22 03:20N 45°33' W 122°42'34275.3
2015-May-22 03:13N 46°05' W 122°56'2942.9
2015-May-22 02:33N 45°37' W 122°48'151271.1
2015-May-22 02:32N 45°52' W 122°48'14121.1
2015-May-22 02:25N 46°05' W 122°56'20222.8
2015-May-22 02:19N 46°12' W 123°23'49555.9
2015-May-22 02:14N 45°33' W 122°42'3446.6
2015-May-22 01:31N 46°05' W 122°56'20505.4
2015-May-22 01:28N 46°12' W 123°23'32355.7
2015-May-22 01:23N 45°52' W 122°48'1416.6
2015-May-22 00:31N 46°05' W 122°56'291612.5
2015-May-22 00:30N 45°37' W 122°48'6555.4
2015-May-22 00:29N 45°33' W 122°42'1964.1
2015-May-22 00:11N 45°52' W 122°48'1929.8
2015-May-21 23:32N 45°33' W 122°42'19374.2
2015-May-21 23:29N 45°52' W 122°48'14713.2
2015-May-21 23:28N 46°05' W 122°56'291612.8
2015-May-21 23:27N 45°37' W 122°48'431859.6
2015-May-21 23:25N 46°12' W 123°23'4348.9
2015-May-21 22:33N 45°37' W 122°48'15240.5
2015-May-21 22:29N 45°52' W 122°48'14703.3
2015-May-21 22:28N 46°05' W 122°56'34147.5
2015-May-21 22:14N 45°33' W 122°42'49430.2
2015-May-21 22:07N 46°12' W 123°23'4982.8
2015-May-21 21:32N 45°33' W 122°42'493807.1
2015-May-21 21:31N 46°12' W 123°23'32829.2
2015-May-21 21:29N 45°52' W 122°48'15169.5
2015-May-21 21:24N 45°37' W 122°48'29874.6
2015-May-21 21:22N 46°05' W 122°56'1417.4
2015-May-21 20:32N 45°52' W 122°48'14693.9
2015-May-21 20:31N 46°05' W 122°56'29244.5
2015-May-21 20:24N 45°37' W 122°48'43347.6
2015-May-21 20:16N 46°12' W 123°23'3240.6
2015-May-21 19:29N 45°52' W 122°48'32528.7
2015-May-21 19:25N 46°12' W 123°23'2078.5
2015-May-21 19:10N 46°05' W 122°56'0 0.0
2015-May-21 18:28N 46°05' W 122°56'14525.7
2015-May-21 18:26N 45°52' W 122°48'322561.0
2015-May-21 18:25N 46°12' W 123°23'43338.5
2015-May-21 18:18N 45°37' W 122°48'0 0.0
2015-May-21 17:33N 45°37' W 122°48'431794.8
2015-May-21 17:31N 46°12' W 123°23'32835.1
2015-May-21 17:29N 45°52' W 122°48'14204.1
2015-May-21 17:25N 46°05' W 122°56'2022.9
2015-May-21 16:31N 46°12' W 123°23'202093.9
2015-May-21 16:31N 46°05' W 122°56'29430.0
2015-May-21 16:27N 45°37' W 122°48'15236.2
2015-May-21 16:23N 45°52' W 122°48'0 0.0
2015-May-21 15:32N 45°52' W 122°48'14684.8
2015-May-21 15:31N 46°05' W 122°56'20508.9
2015-May-21 15:28N 46°12' W 123°23'431624.5
2015-May-21 15:27N 45°37' W 122°48'0 0.0
2015-May-21 14:30N 45°37' W 122°48'431773.9
2015-May-21 14:28N 46°12' W 123°23'32841.2
2015-May-21 14:26N 45°52' W 122°48'14675.9
2015-May-21 14:25N 46°05' W 122°56'2022.9
2015-May-21 13:31N 46°12' W 123°23'32847.5
2015-May-21 13:29N 45°52' W 122°48'14659.0
2015-May-21 13:28N 46°05' W 122°56'29172.9
2015-May-21 13:18N 45°37' W 122°48'0 0.0
2015-May-21 12:33N 45°37' W 122°48'151160.6
2015-May-21 12:32N 45°52' W 122°48'14203.4
2015-May-21 12:28N 46°05' W 122°56'2081.7
2015-May-21 12:13N 46°12' W 123°23'49614.4
2015-May-21 12:08N 45°33' W 122°42'4982.7
2015-May-21 11:33N 46°12' W 123°23'322744.3
2015-May-21 11:32N 45°52' W 122°48'1934800.6
2015-May-21 11:32N 45°33' W 122°42'341573.1
2015-May-21 11:31N 46°05' W 122°56'29132.5
2015-May-21 11:18N 45°37' W 122°48'4357.2
2015-May-21 10:33N 46°12' W 123°23'494071.9
2015-May-21 10:32N 45°33' W 122°42'341513.8
2015-May-21 10:31N 46°05' W 122°56'14112.6
2015-May-21 10:23N 45°52' W 122°48'15170.0
2015-May-21 10:18N 45°37' W 122°48'4357.2
2015-May-21 09:33N 46°12' W 123°23'20586.3
2015-May-21 09:31N 46°05' W 122°56'291876.3
2015-May-21 09:30N 45°37' W 122°48'151241.6
2015-May-21 09:29N 45°52' W 122°48'19382.5
2015-May-21 09:26N 45°33' W 122°42'6 6.6
2015-May-21 08:33N 45°37' W 122°48'4351449.8
2015-May-21 08:33N 46°12' W 123°23'20244.3
2015-May-21 08:28N 46°05' W 122°56'1480.7
2015-May-21 08:17N 45°52' W 122°48'19384.5
2015-May-21 08:14N 45°33' W 122°42'4970.7
2015-May-21 07:33N 46°12' W 123°23'20600.7
2015-May-21 07:31N 46°05' W 122°56'29441.1
2015-May-21 07:27N 45°37' W 122°48'15236.2
2015-May-21 07:23N 45°52' W 122°48'1922.7
2015-May-21 06:32N 45°33' W 122°42'491287.6
2015-May-21 06:30N 46°12' W 123°23'20241.9
2015-May-21 06:25N 46°05' W 122°56'291876.7
2015-May-21 06:24N 45°37' W 122°48'151213.3
2015-May-21 06:23N 45°52' W 122°48'0 0.0
2015-May-21 05:32N 45°52' W 122°48'14198.6
2015-May-21 05:28N 46°05' W 122°56'291947.1
2015-May-21 05:27N 45°37' W 122°48'43241.9
2015-May-21 05:16N 46°12' W 123°23'4359.3
2015-May-21 04:33N 45°37' W 122°48'151241.6
2015-May-21 04:32N 45°52' W 122°48'322216.3
2015-May-21 04:31N 46°12' W 123°23'202290.2
2015-May-21 04:31N 46°05' W 122°56'2929.7
2015-May-21 03:33N 45°37' W 122°48'43341.4
2015-May-21 03:25N 46°12' W 123°23'202155.5
2015-May-21 03:25N 46°05' W 122°56'14542.3
2015-May-21 03:23N 45°52' W 122°48'1922.6
2015-May-21 02:32N 45°33' W 122°42'341863.5
2015-May-21 02:31N 46°05' W 122°56'29444.9
2015-May-21 02:27N 45°37' W 122°48'1591.3
2015-May-21 02:17N 45°52' W 122°48'1520.1
2015-May-21 01:33N 45°37' W 122°48'151302.1
2015-May-21 01:32N 45°52' W 122°48'193314.3
2015-May-21 01:32N 45°33' W 122°42'34494.4
2015-May-21 01:28N 46°05' W 122°56'2084.3
2015-May-21 01:13N 46°12' W 123°23'4363.7
2015-May-21 00:33N 45°37' W 122°48'6340.4
2015-May-21 00:32N 45°33' W 122°42'341892.6
2015-May-21 00:31N 46°05' W 122°56'14113.9
2015-May-21 00:23N 45°52' W 122°48'32357.9
2015-May-21 00:18N 46°12' W 123°23'4357.3
2015-May-20 23:33N 45°37' W 122°48'151213.3
2015-May-20 23:32N 45°52' W 122°48'193866.7
2015-May-20 23:32N 45°33' W 122°42'49207.0
2015-May-20 23:18N 46°12' W 123°23'20245.9
2015-May-20 23:13N 46°05' W 122°56'1421.4
2015-May-20 22:32N 45°52' W 122°48'14612.3
2015-May-20 22:31N 46°05' W 122°56'291911.1
2015-May-20 22:30N 45°37' W 122°48'4322047.4
2015-May-20 22:30N 46°12' W 123°23'0 0.0
2015-May-20 21:33N 46°12' W 123°23'32293.2
2015-May-20 21:26N 45°52' W 122°48'15168.4
2015-May-20 21:21N 45°37' W 122°48'6319.8
2015-May-20 21:20N 45°33' W 122°42'34498.5
2015-May-20 21:16N 46°05' W 122°56'0 0.0
2015-May-20 20:33N 46°05' W 122°56'14946.3
2015-May-20 20:32N 45°52' W 122°48'193315.4
2015-May-20 20:32N 45°33' W 122°42'671.8
2015-May-20 20:27N 45°37' W 122°48'4347.5
2015-May-20 19:33N 46°12' W 123°23'323115.1
2015-May-20 19:32N 45°52' W 122°48'193480.1
2015-May-20 19:32N 45°33' W 122°42'671.5
2015-May-20 19:27N 45°37' W 122°48'29298.3
2015-May-20 19:21N 46°05' W 122°56'0 0.0
2015-May-20 18:33N 46°05' W 122°56'202093.9
2015-May-20 18:32N 46°12' W 123°23'494072.3
2015-May-20 18:32N 45°33' W 122°42'19437.7
2015-May-20 18:29N 45°52' W 122°48'15395.3
2015-May-20 18:27N 45°37' W 122°48'2931.9
2015-May-20 17:33N 46°05' W 122°56'2914745.7
2015-May-20 17:33N 45°37' W 122°48'437717.5
2015-May-20 17:32N 46°12' W 123°23'493648.1
2015-May-20 17:32N 45°33' W 122°42'19135.4
2015-May-20 17:23N 45°52' W 122°48'1517.7
2015-May-20 16:33N 45°37' W 122°48'436710.1
2015-May-20 16:32N 46°12' W 123°23'325488.6
2015-May-20 16:32N 45°52' W 122°48'1515.0
2015-May-20 15:33N 45°37' W 122°48'435716.0
2015-May-20 15:32N 46°12' W 123°23'32585.0
2015-May-20 15:29N 45°52' W 122°48'1515.8
2015-May-20 14:33N 45°37' W 122°48'435935.8
2015-May-20 14:32N 46°12' W 123°23'32582.0
2015-May-20 14:29N 45°52' W 122°48'3233.9
2015-May-20 13:32N 46°12' W 123°23'43995.8
2015-May-20 13:30N 45°37' W 122°48'151213.3
2015-May-20 13:29N 45°52' W 122°48'3232.2
2015-May-20 12:29N 46°12' W 123°23'326780.0
2015-May-20 12:29N 45°52' W 122°48'1975.3
2015-May-20 12:14N 45°33' W 122°42'645.3
2015-May-20 12:06N 45°37' W 122°48'1526.3
2015-May-20 11:32N 45°52' W 122°48'32702.8
2015-May-20 11:29N 46°12' W 123°23'43463.5
2015-May-20 11:24N 45°37' W 122°48'4350.0
2015-May-20 10:32N 46°12' W 123°23'327683.1
2015-May-20 10:32N 45°52' W 122°48'19180.8
2015-May-20 10:26N 45°33' W 122°42'6190.1
2015-May-20 10:24N 45°37' W 122°48'1517.2
2015-May-20 09:32N 45°52' W 122°48'192578.6
2015-May-20 09:32N 45°33' W 122°42'6190.1
2015-May-20 09:30N 45°37' W 122°48'435322.4
2015-May-20 09:29N 46°12' W 123°23'4343.2
2015-May-20 08:30N 45°37' W 122°48'435936.5
2015-May-20 08:29N 46°12' W 123°23'327202.9
2015-May-20 08:29N 45°52' W 122°48'19233.6
2015-May-20 08:24N 45°33' W 122°42'6 6.5
2015-May-20 07:30N 45°37' W 122°48'151270.6
2015-May-20 07:29N 45°52' W 122°48'32694.3
2015-May-20 07:26N 46°12' W 123°23'49144.1
2015-May-20 07:06N 45°33' W 122°42'610.6
2015-May-20 06:33N 45°37' W 122°48'435321.8
2015-May-20 06:32N 46°12' W 123°23'491278.0
2015-May-20 06:30N 45°33' W 122°42'191242.9
2015-May-20 06:29N 45°52' W 122°48'1515.8
2015-May-20 05:33N 45°37' W 122°48'6127.1
2015-May-20 05:30N 45°33' W 122°42'49771.3
2015-May-20 05:26N 46°12' W 123°23'32600.2
2015-May-20 05:23N 45°52' W 122°48'1517.7
2015-May-20 04:33N 45°37' W 122°48'151270.6
2015-May-20 04:32N 45°52' W 122°48'32682.0
2015-May-20 04:29N 46°12' W 123°23'4345.6
2015-May-20 03:33N 45°37' W 122°48'435145.0
2015-May-20 03:32N 46°12' W 123°23'32309.0
2015-May-20 03:26N 45°52' W 122°48'1516.7
2015-May-20 02:33N 45°37' W 122°48'151186.9
2015-May-20 02:32N 45°52' W 122°48'32690.1
2015-May-20 02:29N 46°12' W 123°23'3233.6
2015-May-20 01:32N 45°52' W 122°48'32698.5
2015-May-20 01:29N 46°12' W 123°23'431022.2
2015-May-20 01:27N 45°37' W 122°48'640.0
2015-May-20 01:18N 45°33' W 122°42'4953.3
2015-May-20 00:23N 46°12' W 123°23'431042.8
2015-May-20 00:21N 45°37' W 122°48'6127.1
2015-May-20 00:18N 45°33' W 122°42'191221.4
2015-May-20 00:17N 45°52' W 122°48'1520.1
2015-May-19 23:33N 45°37' W 122°48'43717.8
2015-May-19 23:29N 46°12' W 123°23'3210476.9
2015-May-19 23:29N 45°52' W 122°48'19104.7
2015-May-19 23:18N 45°33' W 122°42'6 7.8
2015-May-19 22:33N 45°37' W 122°48'6124.9
2015-May-19 22:30N 45°33' W 122°42'191265.9
2015-May-19 22:29N 45°52' W 122°48'32329.3
2015-May-19 22:23N 46°12' W 123°23'4351.0
2015-May-19 21:33N 45°37' W 122°48'434409.5
2015-May-19 21:32N 46°12' W 123°23'491306.8
2015-May-19 21:30N 45°33' W 122°42'191243.3
2015-May-19 21:29N 45°52' W 122°48'1515.8
2015-May-19 20:33N 45°37' W 122°48'434287.0
2015-May-19 20:32N 46°12' W 123°23'32609.8
2015-May-19 20:29N 45°52' W 122°48'1967.9
2015-May-19 20:12N 45°33' W 122°42'4973.4
2015-May-19 19:32N 46°12' W 123°23'3211526.0
2015-May-19 19:32N 45°52' W 122°48'15404.3
2015-May-19 19:30N 45°37' W 122°48'0 0.0
2015-May-19 18:33N 45°37' W 122°48'6123.4
2015-May-19 18:30N 45°33' W 122°42'493725.7
2015-May-19 18:29N 46°12' W 123°23'3219210.0
2015-May-19 18:29N 45°52' W 122°48'3233.8
2015-May-19 17:32N 46°12' W 123°23'431102.4
2015-May-19 17:30N 45°37' W 122°48'151186.4
2015-May-19 17:29N 45°52' W 122°48'0 0.0
2015-May-19 16:29N 45°52' W 122°48'15389.7
2015-May-19 16:27N 45°37' W 122°48'43269.8
2015-May-19 16:18N 46°12' W 123°23'4357.9
2015-May-19 15:33N 45°37' W 122°48'433858.3
2015-May-19 15:32N 46°12' W 123°23'32314.0
2015-May-19 15:26N 45°52' W 122°48'3235.6
2015-May-19 14:32N 46°12' W 123°23'431094.6
2015-May-19 14:30N 45°37' W 122°48'1547.5
2015-May-19 14:11N 45°52' W 122°48'1523.3
2015-May-19 13:33N 45°37' W 122°48'434171.6
2015-May-19 13:32N 46°12' W 123°23'32616.4
2015-May-19 13:29N 45°52' W 122°48'1515.8
2015-May-19 12:33N 45°37' W 122°48'433957.7
2015-May-19 12:32N 46°12' W 123°23'32115259.7
2015-May-19 12:32N 45°52' W 122°48'1515.0
2015-May-19 11:33N 45°37' W 122°48'6124.1
2015-May-19 11:30N 45°33' W 122°42'49428.1
2015-May-19 11:23N 46°12' W 123°23'3238419.9
2015-May-19 11:23N 45°52' W 122°48'1517.7
2015-May-19 10:33N 45°37' W 122°48'151271.1
2015-May-19 10:32N 45°52' W 122°48'32658.5
2015-May-19 10:30N 46°12' W 123°23'49550.7
2015-May-19 10:24N 45°33' W 122°42'4956.4
2015-May-19 09:32N 46°12' W 123°23'491259.8
2015-May-19 09:30N 45°33' W 122°42'610552.9
2015-May-19 09:30N 45°37' W 122°48'151186.4
2015-May-19 09:29N 45°52' W 122°48'0 0.0
2015-May-19 08:32N 45°52' W 122°48'15167.9
2015-May-19 08:27N 45°37' W 122°48'433957.2
2015-May-19 08:26N 46°12' W 123°23'491297.1
2015-May-19 08:24N 45°33' W 122°42'6 6.9
2015-May-19 07:33N 45°37' W 122°48'6119.2
2015-May-19 07:30N 45°33' W 122°42'191450.0
2015-May-19 07:29N 45°52' W 122°48'32640.3
2015-May-19 07:26N 46°12' W 123°23'0 0.0
2015-May-19 06:32N 46°12' W 123°23'431126.5
2015-May-19 06:30N 45°37' W 122°48'15239.3
2015-May-19 06:26N 45°52' W 122°48'19141.7
2015-May-19 06:18N 45°33' W 122°42'6 7.8
2015-May-19 05:33N 45°37' W 122°48'433674.6
2015-May-19 05:32N 46°12' W 123°23'491316.6
2015-May-19 05:30N 45°33' W 122°42'1961.6
2015-May-19 05:11N 45°52' W 122°48'3249.3
2015-May-19 04:32N 46°12' W 123°23'491297.1
2015-May-19 04:30N 45°33' W 122°42'639.0
2015-May-19 04:21N 45°37' W 122°48'0 0.0
2015-May-19 03:33N 45°37' W 122°48'433764.2
2015-May-19 03:32N 46°12' W 123°23'49353.0
2015-May-19 03:24N 45°33' W 122°42'6 6.9
2015-May-19 02:33N 45°37' W 122°48'433215.2
2015-May-19 02:32N 46°12' W 123°23'32643.9
2015-May-19 02:29N 45°52' W 122°48'1949.8
2015-May-19 02:06N 45°33' W 122°42'6 9.8
2015-May-19 01:30N 45°37' W 122°48'43686.0
2015-May-19 01:26N 46°12' W 123°23'49354.5
2015-May-19 01:18N 45°33' W 122°42'191657.2
2015-May-19 01:18N 45°52' W 122°48'0 0.0
2015-May-19 00:32N 45°52' W 122°48'15503.7
2015-May-19 00:31N 45°37' W 122°48'616.3
2015-May-19 00:09N 45°33' W 122°42'49785.2
2015-May-19 00:05N 46°12' W 123°23'4379.8
2015-May-18 23:33N 45°37' W 122°48'43676.9
2015-May-18 23:29N 46°12' W 123°23'49554.1
2015-May-18 23:24N 45°33' W 122°42'19173.6
2015-May-18 23:17N 45°52' W 122°48'1520.1
2015-May-18 22:33N 45°37' W 122°48'15242.7
2015-May-18 22:30N 45°52' W 122°48'32314.9
2015-May-18 22:23N 46°12' W 123°23'49555.9
2015-May-18 22:18N 45°33' W 122°42'6 7.8
2015-May-18 21:33N 45°37' W 122°48'15242.6
2015-May-18 21:30N 45°52' W 122°48'32210.3
2015-May-18 21:20N 46°12' W 123°23'49353.8
2015-May-18 21:12N 45°33' W 122°42'0 0.0
2015-May-18 20:33N 45°33' W 122°42'621105.9
2015-May-18 20:33N 45°37' W 122°48'433283.7
2015-May-18 20:32N 46°12' W 123°23'32647.4
2015-May-18 20:29N 45°52' W 122°48'0 0.0
2015-May-18 19:33N 45°52' W 122°48'3223051.9
2015-May-18 19:32N 46°12' W 123°23'431178.1
2015-May-18 19:30N 45°37' W 122°48'658.8
2015-May-18 19:24N 45°33' W 122°42'6 6.9
2015-May-18 18:33N 45°37' W 122°48'433283.7
2015-May-18 18:32N 46°12' W 123°23'491297.1
2015-May-18 18:30N 45°33' W 122°42'191582.3
2015-May-18 18:29N 45°52' W 122°48'1515.8
2015-May-18 17:33N 45°37' W 122°48'6115.3
2015-May-18 17:30N 45°33' W 122°42'493806.7
2015-May-18 17:29N 46°12' W 123°23'32326.5
2015-May-18 17:24N 45°52' W 122°48'1517.7
2015-May-18 16:33N 45°37' W 122°48'65276.5
2015-May-18 16:33N 45°33' W 122°42'191832.2
2015-May-18 16:33N 45°52' W 122°48'3219207.6
2015-May-18 16:32N 46°12' W 123°23'4343.5
2015-May-18 15:33N 45°37' W 122°48'151213.3
2015-May-18 15:33N 45°52' W 122°48'3214405.7
2015-May-18 15:32N 46°12' W 123°23'49356.6
2015-May-18 15:24N 45°33' W 122°42'4956.4
2015-May-18 14:32N 46°12' W 123°23'43496.2
2015-May-18 14:27N 45°37' W 122°48'15240.5
2015-May-18 14:24N 45°52' W 122°48'1517.7
2015-May-18 13:33N 45°37' W 122°48'151368.9
2015-May-18 13:33N 45°52' W 122°48'3210478.2
2015-May-18 13:32N 46°12' W 123°23'4343.5
2015-May-18 12:33N 45°37' W 122°48'151302.1
2015-May-18 12:33N 45°52' W 122°48'3210478.2
2015-May-18 12:32N 46°12' W 123°23'3232.1
2015-May-18 11:33N 45°52' W 122°48'15386.9
2015-May-18 11:30N 45°37' W 122°48'43665.3
2015-May-18 11:26N 46°12' W 123°23'49144.1
2015-May-18 11:06N 45°33' W 122°42'1934.6
2015-May-18 10:33N 45°52' W 122°48'3211524.6
2015-May-18 10:32N 46°12' W 123°23'43504.4
2015-May-18 10:27N 45°37' W 122°48'6112.9
2015-May-18 10:24N 45°33' W 122°42'1922.5
2015-May-18 09:33N 45°52' W 122°48'3212806.6
2015-May-18 09:32N 46°12' W 123°23'43502.8
2015-May-18 09:27N 45°37' W 122°48'0 0.0
2015-May-18 08:33N 45°37' W 122°48'432858.3
2015-May-18 08:32N 46°12' W 123°23'32686.2
2015-May-18 08:30N 45°52' W 122°48'19213.5
2015-May-18 08:24N 45°33' W 122°42'6 6.9
2015-May-18 07:33N 45°37' W 122°48'433087.3
2015-May-18 07:33N 46°12' W 123°23'49349.6
2015-May-18 07:24N 45°33' W 122°42'19330.0
2015-May-18 07:21N 45°52' W 122°48'1518.8
2015-May-18 06:33N 45°37' W 122°48'432858.0
2015-May-18 06:32N 46°12' W 123°23'491297.1
2015-May-18 06:30N 45°33' W 122°42'192047.1
2015-May-18 06:30N 45°52' W 122°48'1515.8
2015-May-18 05:33N 45°37' W 122°48'432755.9
2015-May-18 05:32N 46°12' W 123°23'32681.9
2015-May-18 05:30N 45°52' W 122°48'3233.6
2015-May-18 04:32N 46°12' W 123°23'32686.1
2015-May-18 04:30N 45°52' W 122°48'15169.5
2015-May-18 04:24N 45°37' W 122°48'638.3
2015-May-18 04:15N 45°33' W 122°42'6 8.4
2015-May-18 03:33N 45°37' W 122°48'15240.5
2015-May-18 03:30N 45°52' W 122°48'19212.8
2015-May-18 03:24N 45°33' W 122°42'49298.3
2015-May-18 03:14N 46°12' W 123°23'0 0.0
2015-May-18 02:29N 46°12' W 123°23'431244.8
2015-May-18 02:27N 45°37' W 122°48'6114.6
2015-May-18 02:24N 45°33' W 122°42'19174.4
2015-May-18 02:18N 45°52' W 122°48'1520.1
2015-May-18 01:33N 45°37' W 122°48'15234.2
2015-May-18 01:30N 45°52' W 122°48'3212806.6
2015-May-18 01:30N 46°12' W 123°23'4343.5
2015-May-18 00:30N 45°37' W 122°48'15239.4
2015-May-18 00:27N 45°52' W 122°48'19458.0
2015-May-18 00:24N 45°33' W 122°42'493979.7
2015-May-18 00:23N 46°12' W 123°23'4351.4
2015-May-17 23:33N 45°37' W 122°48'151212.9
2015-May-17 23:33N 45°52' W 122°48'328232.8
2015-May-17 23:32N 46°12' W 123°23'491278.2
2015-May-17 23:30N 45°33' W 122°42'6 6.2
2015-May-17 22:33N 45°37' W 122°48'6108.8
2015-May-17 22:30N 45°33' W 122°42'192486.5
2015-May-17 22:30N 45°52' W 122°48'326065.6
2015-May-17 22:29N 46°12' W 123°23'4951.9
2015-May-17 21:33N 45°33' W 122°42'  

Dump ship's entire track history